<?xml version="1.0" encoding="UTF-8" standalone="no" ?>
<gpx xmlns="http://www.topografix.com/GPX/1/1" xmlns:xsi="http://www.w3.org/2001/XMLSchema-instance" xsi:schemaLocation="http://www.topografix.com/GPX/1/1 http://www.topografix.com/GPX/1/1/gpx.xsd" version="1.1" creator="VisuGPX - https://www.visugpx.com">
  <metadata>
    <name>Floirac Monteils Castanet</name>
  </metadata>
  <wpt lat="44.27827" lon="1.97125">
    <ele>252</ele>
    <name><![CDATA[xVZ9aafO--.1.jpg]]></name>
    <link href="xVZ9aafO--.1.jpg"></link>
  </wpt>
  <wpt lat="44.27793" lon="1.97134">
    <ele>253.3</ele>
    <name><![CDATA[xVZ9aaPu--.1.jpg]]></name>
    <link href="xVZ9aaPu--.1.jpg"></link>
  </wpt>
  <wpt lat="44.27766" lon="1.97185">
    <ele>259.4</ele>
    <name><![CDATA[xVZ9aaor--.1.jpg]]></name>
    <link href="xVZ9aaor--.1.jpg"></link>
  </wpt>
  <wpt lat="44.27755" lon="1.9719">
    <ele>261</ele>
    <name><![CDATA[xVZ9aP_X--.1.jpg]]></name>
    <link href="xVZ9aP_X--.1.jpg"></link>
  </wpt>
  <wpt lat="44.27653" lon="1.97194">
    <ele>270.4</ele>
    <name><![CDATA[xVZ9aOvK--.1.jpg]]></name>
    <link href="xVZ9aOvK--.1.jpg"></link>
  </wpt>
  <wpt lat="44.2761" lon="1.97183">
    <ele>267.5</ele>
    <name><![CDATA[xVZ9aL8o--.1.jpg]]></name>
    <link href="xVZ9aL8o--.1.jpg"></link>
  </wpt>
  <wpt lat="44.27587" lon="1.9717">
    <ele>263.7</ele>
    <name><![CDATA[xVZ9aLtE--.1.mp4]]></name>
    <link href="xVZ9aLtE--.1.mp4"></link>
  </wpt>
  <wpt lat="44.27201" lon="1.97026">
    <ele>260.5</ele>
    <name><![CDATA[xVZ9PN2m--.1.jpg]]></name>
    <link href="xVZ9PN2m--.1.jpg"></link>
  </wpt>
  <wpt lat="44.26462" lon="1.95673">
    <ele>374.7</ele>
    <name><![CDATA[xVZ9MBos--.1.jpg]]></name>
    <link href="xVZ9MBos--.1.jpg"></link>
  </wpt>
  <wpt lat="44.26428" lon="1.95707">
    <ele>370.5</ele>
    <name><![CDATA[xVZ9MCQs--.1.jpg]]></name>
    <link href="xVZ9MCQs--.1.jpg"></link>
  </wpt>
  <wpt lat="44.26227" lon="1.95683">
    <ele>360.6</ele>
    <name><![CDATA[xVZ9JR6f--.1.jpg]]></name>
    <link href="xVZ9JR6f--.1.jpg"></link>
  </wpt>
  <wpt lat="44.26019" lon="1.96003">
    <ele>400.8</ele>
    <name><![CDATA[xVZ9JOYR--.1.jpg]]></name>
    <link href="xVZ9JOYR--.1.jpg"></link>
  </wpt>
  <wpt lat="44.25883" lon="1.96198">
    <ele>399</ele>
    <name><![CDATA[xVZ9Jgye--.1.mp4]]></name>
    <link href="xVZ9Jgye--.1.mp4"></link>
  </wpt>
  <wpt lat="44.24754" lon="1.9723">
    <ele>459.3</ele>
    <name><![CDATA[xVZ8fgDk--.1.jpg]]></name>
    <link href="xVZ8fgDk--.1.jpg"></link>
  </wpt>
  <wpt lat="44.25137" lon="1.97299">
    <ele>443.9</ele>
    <name><![CDATA[xVZ8fxz1--.1.mp4]]></name>
    <link href="xVZ8fxz1--.1.mp4"></link>
  </wpt>
  <wpt lat="44.26728" lon="1.97546">
    <ele>311.4</ele>
    <name><![CDATA[xVZ9O4fu--.1.jpg]]></name>
    <link href="xVZ9O4fu--.1.jpg"></link>
  </wpt>
  <wpt lat="44.28055" lon="1.99415">
    <ele>304</ele>
    <name><![CDATA[xVZ9zgB8--.1.jpg]]></name>
    <link href="xVZ9zgB8--.1.jpg"></link>
  </wpt>
  <wpt lat="44.28087" lon="1.99438">
    <ele>299.5</ele>
    <name><![CDATA[xVZ9zgZS--.1.3gp]]></name>
    <link href="xVZ9zgZS--.1.3gp"></link>
  </wpt>
  <trk>
    <name><![CDATA[Floirac Monteils Castanet_1]]></name>
    <trkseg>
      <trkpt lat="44.28689" lon="1.99959">
        <ele>242.375</ele>
        <time>2019-08-29T07:47:56Z</time>
      </trkpt>
      <trkpt lat="44.2868" lon="1.99945">
        <ele>242.266</ele>
        <time>2019-08-29T07:48:00Z</time>
      </trkpt>
      <trkpt lat="44.28713" lon="1.99834">
        <ele>239.87</ele>
        <time>2019-08-29T07:48:18Z</time>
      </trkpt>
      <trkpt lat="44.28725" lon="1.99817">
        <ele>240.328</ele>
        <time>2019-08-29T07:48:21Z</time>
      </trkpt>
      <trkpt lat="44.28736" lon="1.99786">
        <ele>241.378</ele>
        <time>2019-08-29T07:48:25Z</time>
      </trkpt>
      <trkpt lat="44.28738" lon="1.99763">
        <ele>242.155</ele>
        <time>2019-08-29T07:48:28Z</time>
      </trkpt>
      <trkpt lat="44.28737" lon="1.99732">
        <ele>242.832</ele>
        <time>2019-08-29T07:48:32Z</time>
      </trkpt>
      <trkpt lat="44.28733" lon="1.99683">
        <ele>245.159</ele>
        <time>2019-08-29T07:48:38Z</time>
      </trkpt>
      <trkpt lat="44.2873" lon="1.99653">
        <ele>247.288</ele>
        <time>2019-08-29T07:48:42Z</time>
      </trkpt>
      <trkpt lat="44.28738" lon="1.99561">
        <ele>254.738</ele>
        <time>2019-08-29T07:48:56Z</time>
      </trkpt>
      <trkpt lat="44.28741" lon="1.99542">
        <ele>256.215</ele>
        <time>2019-08-29T07:48:59Z</time>
      </trkpt>
      <trkpt lat="44.28745" lon="1.99523">
        <ele>258.637</ele>
        <time>2019-08-29T07:49:02Z</time>
      </trkpt>
      <trkpt lat="44.2875" lon="1.99498">
        <ele>261.381</ele>
        <time>2019-08-29T07:49:06Z</time>
      </trkpt>
      <trkpt lat="44.28754" lon="1.99482">
        <ele>263.404</ele>
        <time>2019-08-29T07:49:09Z</time>
      </trkpt>
      <trkpt lat="44.28757" lon="1.99466">
        <ele>265.732</ele>
        <time>2019-08-29T07:49:12Z</time>
      </trkpt>
      <trkpt lat="44.28763" lon="1.99444">
        <ele>268.439</ele>
        <time>2019-08-29T07:49:16Z</time>
      </trkpt>
      <trkpt lat="44.28776" lon="1.99404">
        <ele>274.399</ele>
        <time>2019-08-29T07:49:23Z</time>
      </trkpt>
      <trkpt lat="44.28782" lon="1.99384">
        <ele>276.18</ele>
        <time>2019-08-29T07:49:26Z</time>
      </trkpt>
      <trkpt lat="44.28721" lon="1.9902">
        <ele>314.067</ele>
        <time>2019-08-29T07:50:21Z</time>
      </trkpt>
      <trkpt lat="44.2872" lon="1.98982">
        <ele>317.24</ele>
        <time>2019-08-29T07:50:27Z</time>
      </trkpt>
      <trkpt lat="44.28718" lon="1.98952">
        <ele>320.064</ele>
        <time>2019-08-29T07:50:31Z</time>
      </trkpt>
      <trkpt lat="44.287" lon="1.98924">
        <ele>323.468</ele>
        <time>2019-08-29T07:50:37Z</time>
      </trkpt>
      <trkpt lat="44.28687" lon="1.98905">
        <ele>326.007</ele>
        <time>2019-08-29T07:50:41Z</time>
      </trkpt>
      <trkpt lat="44.28671" lon="1.98879">
        <ele>329.763</ele>
        <time>2019-08-29T07:50:47Z</time>
      </trkpt>
      <trkpt lat="44.28659" lon="1.98863">
        <ele>331.944</ele>
        <time>2019-08-29T07:50:51Z</time>
      </trkpt>
      <trkpt lat="44.28644" lon="1.9884">
        <ele>334.087</ele>
        <time>2019-08-29T07:50:56Z</time>
      </trkpt>
      <trkpt lat="44.28626" lon="1.98819">
        <ele>335.56</ele>
        <time>2019-08-29T07:51:00Z</time>
      </trkpt>
      <trkpt lat="44.28607" lon="1.988">
        <ele>337.406</ele>
        <time>2019-08-29T07:51:04Z</time>
      </trkpt>
      <trkpt lat="44.28579" lon="1.98783">
        <ele>339.01</ele>
        <time>2019-08-29T07:51:10Z</time>
      </trkpt>
      <trkpt lat="44.28544" lon="1.98774">
        <ele>343.986</ele>
        <time>2019-08-29T07:51:20Z</time>
      </trkpt>
      <trkpt lat="44.28522" lon="1.98784">
        <ele>345.832</ele>
        <time>2019-08-29T07:51:24Z</time>
      </trkpt>
      <trkpt lat="44.28503" lon="1.98789">
        <ele>346.881</ele>
        <time>2019-08-29T07:51:27Z</time>
      </trkpt>
      <trkpt lat="44.28486" lon="1.98789">
        <ele>347.074</ele>
        <time>2019-08-29T07:51:30Z</time>
      </trkpt>
      <trkpt lat="44.28469" lon="1.98784">
        <ele>348.229</ele>
        <time>2019-08-29T07:51:33Z</time>
      </trkpt>
      <trkpt lat="44.28449" lon="1.98775">
        <ele>351.055</ele>
        <time>2019-08-29T07:51:37Z</time>
      </trkpt>
      <trkpt lat="44.28431" lon="1.98768">
        <ele>352.985</ele>
        <time>2019-08-29T07:51:41Z</time>
      </trkpt>
      <trkpt lat="44.28413" lon="1.98763">
        <ele>354.446</ele>
        <time>2019-08-29T07:51:45Z</time>
      </trkpt>
      <trkpt lat="44.28395" lon="1.98755">
        <ele>356.417</ele>
        <time>2019-08-29T07:51:49Z</time>
      </trkpt>
      <trkpt lat="44.28383" lon="1.98749">
        <ele>357.857</ele>
        <time>2019-08-29T07:51:52Z</time>
      </trkpt>
      <trkpt lat="44.2837" lon="1.98739">
        <ele>359.666</ele>
        <time>2019-08-29T07:51:55Z</time>
      </trkpt>
      <trkpt lat="44.28357" lon="1.98725">
        <ele>361.784</ele>
        <time>2019-08-29T07:51:58Z</time>
      </trkpt>
      <trkpt lat="44.28342" lon="1.98706">
        <ele>363.73</ele>
        <time>2019-08-29T07:52:02Z</time>
      </trkpt>
      <trkpt lat="44.28328" lon="1.98688">
        <ele>365.66</ele>
        <time>2019-08-29T07:52:06Z</time>
      </trkpt>
      <trkpt lat="44.28315" lon="1.9867">
        <ele>367.555</ele>
        <time>2019-08-29T07:52:10Z</time>
      </trkpt>
      <trkpt lat="44.28299" lon="1.98652">
        <ele>370.031</ele>
        <time>2019-08-29T07:52:14Z</time>
      </trkpt>
      <trkpt lat="44.28286" lon="1.98637">
        <ele>372.212</ele>
        <time>2019-08-29T07:52:18Z</time>
      </trkpt>
      <trkpt lat="44.28296" lon="1.9863">
        <ele>376.235</ele>
        <time>2019-08-29T07:52:30Z</time>
      </trkpt>
      <trkpt lat="44.283" lon="1.98617">
        <ele>376.41</ele>
        <time>2019-08-29T07:52:34Z</time>
      </trkpt>
      <trkpt lat="44.28297" lon="1.986">
        <ele>375.981</ele>
        <time>2019-08-29T07:52:38Z</time>
      </trkpt>
      <trkpt lat="44.28295" lon="1.98582">
        <ele>375.808</ele>
        <time>2019-08-29T07:52:42Z</time>
      </trkpt>
      <trkpt lat="44.28291" lon="1.98565">
        <ele>375.214</ele>
        <time>2019-08-29T07:52:46Z</time>
      </trkpt>
      <trkpt lat="44.28292" lon="1.9855">
        <ele>374.879</ele>
        <time>2019-08-29T07:52:50Z</time>
      </trkpt>
      <trkpt lat="44.283" lon="1.98487">
        <ele>374.136</ele>
        <time>2019-08-29T07:53:09Z</time>
      </trkpt>
      <trkpt lat="44.28302" lon="1.98472">
        <ele>373.559</ele>
        <time>2019-08-29T07:53:14Z</time>
      </trkpt>
      <trkpt lat="44.28313" lon="1.98461">
        <ele>374.005</ele>
        <time>2019-08-29T07:53:20Z</time>
      </trkpt>
      <trkpt lat="44.2832" lon="1.98449">
        <ele>374.007</ele>
        <time>2019-08-29T07:53:24Z</time>
      </trkpt>
      <trkpt lat="44.28324" lon="1.98434">
        <ele>373.647</ele>
        <time>2019-08-29T07:53:28Z</time>
      </trkpt>
      <trkpt lat="44.28327" lon="1.98421">
        <ele>373.708</ele>
        <time>2019-08-29T07:53:32Z</time>
      </trkpt>
      <trkpt lat="44.28328" lon="1.98409">
        <ele>374.213</ele>
        <time>2019-08-29T07:53:38Z</time>
      </trkpt>
      <trkpt lat="44.28331" lon="1.98393">
        <ele>375.794</ele>
        <time>2019-08-29T07:53:44Z</time>
      </trkpt>
      <trkpt lat="44.28332" lon="1.98378">
        <ele>376.217</ele>
        <time>2019-08-29T07:53:48Z</time>
      </trkpt>
      <trkpt lat="44.28331" lon="1.9836">
        <ele>376.959</ele>
        <time>2019-08-29T07:53:52Z</time>
      </trkpt>
      <trkpt lat="44.2833" lon="1.98344">
        <ele>377.434</ele>
        <time>2019-08-29T07:53:56Z</time>
      </trkpt>
      <trkpt lat="44.2833" lon="1.98327">
        <ele>378.156</ele>
        <time>2019-08-29T07:54:00Z</time>
      </trkpt>
      <trkpt lat="44.2833" lon="1.98313">
        <ele>378.196</ele>
        <time>2019-08-29T07:54:03Z</time>
      </trkpt>
      <trkpt lat="44.28329" lon="1.98294">
        <ele>379.134</ele>
        <time>2019-08-29T07:54:07Z</time>
      </trkpt>
      <trkpt lat="44.28327" lon="1.98272">
        <ele>380.114</ele>
        <time>2019-08-29T07:54:12Z</time>
      </trkpt>
      <trkpt lat="44.28328" lon="1.98255">
        <ele>380.188</ele>
        <time>2019-08-29T07:54:16Z</time>
      </trkpt>
      <trkpt lat="44.28328" lon="1.9824">
        <ele>380.017</ele>
        <time>2019-08-29T07:54:19Z</time>
      </trkpt>
      <trkpt lat="44.2833" lon="1.98225">
        <ele>379.582</ele>
        <time>2019-08-29T07:54:22Z</time>
      </trkpt>
      <trkpt lat="44.28334" lon="1.98205">
        <ele>379.076</ele>
        <time>2019-08-29T07:54:26Z</time>
      </trkpt>
      <trkpt lat="44.28341" lon="1.98184">
        <ele>379.222</ele>
        <time>2019-08-29T07:54:31Z</time>
      </trkpt>
      <trkpt lat="44.28345" lon="1.98167">
        <ele>378.436</ele>
        <time>2019-08-29T07:54:35Z</time>
      </trkpt>
      <trkpt lat="44.2835" lon="1.98155">
        <ele>378.575</ele>
        <time>2019-08-29T07:54:38Z</time>
      </trkpt>
      <trkpt lat="44.28355" lon="1.98141">
        <ele>379.009</ele>
        <time>2019-08-29T07:54:42Z</time>
      </trkpt>
      <trkpt lat="44.28362" lon="1.9813">
        <ele>380.208</ele>
        <time>2019-08-29T07:54:46Z</time>
      </trkpt>
      <trkpt lat="44.28364" lon="1.98116">
        <ele>380.315</ele>
        <time>2019-08-29T07:55:06Z</time>
      </trkpt>
      <trkpt lat="44.2836" lon="1.98104">
        <ele>379.054</ele>
        <time>2019-08-29T07:55:10Z</time>
      </trkpt>
      <trkpt lat="44.28344" lon="1.9807">
        <ele>377.286</ele>
        <time>2019-08-29T07:55:14Z</time>
      </trkpt>
      <trkpt lat="44.28345" lon="1.98053">
        <ele>375.511</ele>
        <time>2019-08-29T07:55:17Z</time>
      </trkpt>
      <trkpt lat="44.28348" lon="1.97908">
        <ele>367.418</ele>
        <time>2019-08-29T07:55:42Z</time>
      </trkpt>
      <trkpt lat="44.28346" lon="1.97887">
        <ele>366.157</ele>
        <time>2019-08-29T07:55:47Z</time>
      </trkpt>
      <trkpt lat="44.28334" lon="1.97789">
        <ele>354.121</ele>
        <time>2019-08-29T07:56:18Z</time>
      </trkpt>
      <trkpt lat="44.28331" lon="1.97763">
        <ele>349.788</ele>
        <time>2019-08-29T07:56:28Z</time>
      </trkpt>
      <trkpt lat="44.28321" lon="1.9775">
        <ele>343.419</ele>
        <time>2019-08-29T07:56:40Z</time>
      </trkpt>
      <trkpt lat="44.28301" lon="1.97766">
        <ele>336.447</ele>
        <time>2019-08-29T07:56:50Z</time>
      </trkpt>
      <trkpt lat="44.28293" lon="1.97776">
        <ele>334.73</ele>
        <time>2019-08-29T07:56:54Z</time>
      </trkpt>
      <trkpt lat="44.28285" lon="1.97785">
        <ele>333.022</ele>
        <time>2019-08-29T07:56:58Z</time>
      </trkpt>
      <trkpt lat="44.28274" lon="1.97797">
        <ele>331.792</ele>
        <time>2019-08-29T07:57:05Z</time>
      </trkpt>
      <trkpt lat="44.28266" lon="1.97804">
        <ele>330.547</ele>
        <time>2019-08-29T07:57:10Z</time>
      </trkpt>
      <trkpt lat="44.2818" lon="1.97276">
        <ele>275.91</ele>
        <time>2019-08-29T08:01:58Z</time>
      </trkpt>
      <trkpt lat="44.28183" lon="1.9724">
        <ele>277.825</ele>
        <time>2019-08-29T08:02:32Z</time>
      </trkpt>
      <trkpt lat="44.2818" lon="1.97228">
        <ele>278.202</ele>
        <time>2019-08-29T08:02:40Z</time>
      </trkpt>
      <trkpt lat="44.28178" lon="1.97215">
        <ele>276.205</ele>
        <time>2019-08-29T08:02:54Z</time>
      </trkpt>
      <trkpt lat="44.28174" lon="1.97202">
        <ele>274.682</ele>
        <time>2019-08-29T08:02:59Z</time>
      </trkpt>
      <trkpt lat="44.28168" lon="1.97193">
        <ele>273.888</ele>
        <time>2019-08-29T08:03:04Z</time>
      </trkpt>
      <trkpt lat="44.28157" lon="1.97189">
        <ele>271.917</ele>
        <time>2019-08-29T08:03:08Z</time>
      </trkpt>
      <trkpt lat="44.28145" lon="1.97185">
        <ele>269.923</ele>
        <time>2019-08-29T08:03:12Z</time>
      </trkpt>
      <trkpt lat="44.28136" lon="1.97183">
        <ele>268.486</ele>
        <time>2019-08-29T08:03:16Z</time>
      </trkpt>
      <trkpt lat="44.28124" lon="1.97183">
        <ele>266.33</ele>
        <time>2019-08-29T08:03:21Z</time>
      </trkpt>
      <trkpt lat="44.28113" lon="1.97182">
        <ele>265.16</ele>
        <time>2019-08-29T08:03:25Z</time>
      </trkpt>
      <trkpt lat="44.28103" lon="1.97182">
        <ele>265.04</ele>
        <time>2019-08-29T08:03:28Z</time>
      </trkpt>
      <trkpt lat="44.28055" lon="1.97167">
        <ele>261.406</ele>
        <time>2019-08-29T08:03:48Z</time>
      </trkpt>
      <trkpt lat="44.27824" lon="1.97125">
        <ele>261.787</ele>
        <time>2019-08-29T08:15:56Z</time>
      </trkpt>
      <trkpt lat="44.27815" lon="1.9712">
        <ele>260.572</ele>
        <time>2019-08-29T08:16:00Z</time>
      </trkpt>
      <trkpt lat="44.27777" lon="1.9718">
        <ele>262.828</ele>
        <time>2019-08-29T08:18:18Z</time>
      </trkpt>
      <trkpt lat="44.27767" lon="1.97185">
        <ele>265.026</ele>
        <time>2019-08-29T08:18:37Z</time>
      </trkpt>
      <trkpt lat="44.27758" lon="1.97189">
        <ele>262.194</ele>
        <time>2019-08-29T08:19:28Z</time>
      </trkpt>
      <trkpt lat="44.27748" lon="1.97187">
        <ele>263.353</ele>
        <time>2019-08-29T08:20:24Z</time>
      </trkpt>
      <trkpt lat="44.27736" lon="1.97189">
        <ele>266.31</ele>
        <time>2019-08-29T08:21:08Z</time>
      </trkpt>
      <trkpt lat="44.27726" lon="1.97191">
        <ele>266.759</ele>
        <time>2019-08-29T08:21:12Z</time>
      </trkpt>
      <trkpt lat="44.27715" lon="1.97188">
        <ele>269.288</ele>
        <time>2019-08-29T08:21:17Z</time>
      </trkpt>
      <trkpt lat="44.27706" lon="1.97187">
        <ele>269.106</ele>
        <time>2019-08-29T08:21:22Z</time>
      </trkpt>
      <trkpt lat="44.27696" lon="1.97188">
        <ele>270.371</ele>
        <time>2019-08-29T08:21:27Z</time>
      </trkpt>
      <trkpt lat="44.27685" lon="1.97191">
        <ele>271.249</ele>
        <time>2019-08-29T08:21:32Z</time>
      </trkpt>
      <trkpt lat="44.27676" lon="1.97198">
        <ele>271.194</ele>
        <time>2019-08-29T08:21:37Z</time>
      </trkpt>
      <trkpt lat="44.27665" lon="1.97198">
        <ele>271.018</ele>
        <time>2019-08-29T08:21:43Z</time>
      </trkpt>
      <trkpt lat="44.27655" lon="1.97195">
        <ele>273.412</ele>
        <time>2019-08-29T08:21:48Z</time>
      </trkpt>
      <trkpt lat="44.27645" lon="1.97196">
        <ele>272.901</ele>
        <time>2019-08-29T08:22:07Z</time>
      </trkpt>
      <trkpt lat="44.27634" lon="1.97194">
        <ele>272.721</ele>
        <time>2019-08-29T08:22:10Z</time>
      </trkpt>
      <trkpt lat="44.27626" lon="1.97189">
        <ele>273.062</ele>
        <time>2019-08-29T08:22:14Z</time>
      </trkpt>
      <trkpt lat="44.27616" lon="1.97186">
        <ele>273.291</ele>
        <time>2019-08-29T08:22:18Z</time>
      </trkpt>
      <trkpt lat="44.27605" lon="1.97182">
        <ele>273.137</ele>
        <time>2019-08-29T08:22:41Z</time>
      </trkpt>
      <trkpt lat="44.27596" lon="1.97177">
        <ele>272.881</ele>
        <time>2019-08-29T08:22:48Z</time>
      </trkpt>
      <trkpt lat="44.27587" lon="1.97172">
        <ele>272.143</ele>
        <time>2019-08-29T08:23:08Z</time>
      </trkpt>
      <trkpt lat="44.27578" lon="1.97171">
        <ele>271.067</ele>
        <time>2019-08-29T08:23:12Z</time>
      </trkpt>
      <trkpt lat="44.27568" lon="1.97174">
        <ele>270.443</ele>
        <time>2019-08-29T08:23:15Z</time>
      </trkpt>
      <trkpt lat="44.27556" lon="1.97173">
        <ele>270.3</ele>
        <time>2019-08-29T08:23:19Z</time>
      </trkpt>
      <trkpt lat="44.27544" lon="1.97168">
        <ele>270.085</ele>
        <time>2019-08-29T08:23:23Z</time>
      </trkpt>
      <trkpt lat="44.27535" lon="1.97165">
        <ele>269.716</ele>
        <time>2019-08-29T08:23:26Z</time>
      </trkpt>
      <trkpt lat="44.27524" lon="1.97162">
        <ele>270.179</ele>
        <time>2019-08-29T08:23:29Z</time>
      </trkpt>
      <trkpt lat="44.27508" lon="1.97158">
        <ele>270.36</ele>
        <time>2019-08-29T08:23:33Z</time>
      </trkpt>
      <trkpt lat="44.27486" lon="1.9715">
        <ele>269.289</ele>
        <time>2019-08-29T08:23:43Z</time>
      </trkpt>
      <trkpt lat="44.27473" lon="1.97148">
        <ele>267.142</ele>
        <time>2019-08-29T08:23:47Z</time>
      </trkpt>
      <trkpt lat="44.2746" lon="1.97146">
        <ele>266.631</ele>
        <time>2019-08-29T08:23:51Z</time>
      </trkpt>
      <trkpt lat="44.2745" lon="1.97146">
        <ele>265.834</ele>
        <time>2019-08-29T08:23:55Z</time>
      </trkpt>
      <trkpt lat="44.27435" lon="1.9715">
        <ele>264.969</ele>
        <time>2019-08-29T08:24:02Z</time>
      </trkpt>
      <trkpt lat="44.27424" lon="1.97151">
        <ele>263.815</ele>
        <time>2019-08-29T08:24:07Z</time>
      </trkpt>
      <trkpt lat="44.27414" lon="1.97153">
        <ele>262.295</ele>
        <time>2019-08-29T08:24:11Z</time>
      </trkpt>
      <trkpt lat="44.27382" lon="1.97161">
        <ele>257.017</ele>
        <time>2019-08-29T08:24:22Z</time>
      </trkpt>
      <trkpt lat="44.2737" lon="1.97163">
        <ele>255.948</ele>
        <time>2019-08-29T08:24:25Z</time>
      </trkpt>
      <trkpt lat="44.27354" lon="1.97166">
        <ele>254.134</ele>
        <time>2019-08-29T08:24:29Z</time>
      </trkpt>
      <trkpt lat="44.27343" lon="1.97169">
        <ele>252.457</ele>
        <time>2019-08-29T08:24:32Z</time>
      </trkpt>
      <trkpt lat="44.27333" lon="1.97174">
        <ele>251.141</ele>
        <time>2019-08-29T08:24:35Z</time>
      </trkpt>
      <trkpt lat="44.27313" lon="1.97183">
        <ele>249.471</ele>
        <time>2019-08-29T08:24:39Z</time>
      </trkpt>
      <trkpt lat="44.27304" lon="1.97188">
        <ele>248.288</ele>
        <time>2019-08-29T08:24:43Z</time>
      </trkpt>
      <trkpt lat="44.27294" lon="1.97192">
        <ele>246.199</ele>
        <time>2019-08-29T08:24:47Z</time>
      </trkpt>
      <trkpt lat="44.27281" lon="1.97197">
        <ele>245.314</ele>
        <time>2019-08-29T08:24:51Z</time>
      </trkpt>
      <trkpt lat="44.27271" lon="1.97201">
        <ele>248.233</ele>
        <time>2019-08-29T08:24:58Z</time>
      </trkpt>
      <trkpt lat="44.2728" lon="1.9719">
        <ele>249.518</ele>
        <time>2019-08-29T08:25:32Z</time>
      </trkpt>
      <trkpt lat="44.2729" lon="1.97182">
        <ele>249.608</ele>
        <time>2019-08-29T08:25:36Z</time>
      </trkpt>
      <trkpt lat="44.27299" lon="1.97171">
        <ele>249.472</ele>
        <time>2019-08-29T08:25:39Z</time>
      </trkpt>
      <trkpt lat="44.27296" lon="1.97156">
        <ele>249.04</ele>
        <time>2019-08-29T08:25:55Z</time>
      </trkpt>
      <trkpt lat="44.27299" lon="1.97134">
        <ele>247.443</ele>
        <time>2019-08-29T08:25:59Z</time>
      </trkpt>
      <trkpt lat="44.27301" lon="1.97116">
        <ele>246.522</ele>
        <time>2019-08-29T08:26:02Z</time>
      </trkpt>
      <trkpt lat="44.27304" lon="1.97102">
        <ele>245.48</ele>
        <time>2019-08-29T08:26:05Z</time>
      </trkpt>
      <trkpt lat="44.27309" lon="1.97087">
        <ele>244.799</ele>
        <time>2019-08-29T08:26:09Z</time>
      </trkpt>
      <trkpt lat="44.27305" lon="1.97074">
        <ele>245.458</ele>
        <time>2019-08-29T08:26:14Z</time>
      </trkpt>
      <trkpt lat="44.27304" lon="1.97058">
        <ele>244.697</ele>
        <time>2019-08-29T08:26:19Z</time>
      </trkpt>
      <trkpt lat="44.2731" lon="1.97036">
        <ele>244.616</ele>
        <time>2019-08-29T08:26:23Z</time>
      </trkpt>
      <trkpt lat="44.27314" lon="1.9702">
        <ele>245.212</ele>
        <time>2019-08-29T08:26:27Z</time>
      </trkpt>
      <trkpt lat="44.27314" lon="1.97007">
        <ele>245.839</ele>
        <time>2019-08-29T08:26:31Z</time>
      </trkpt>
      <trkpt lat="44.27302" lon="1.97014">
        <ele>245.727</ele>
        <time>2019-08-29T08:26:37Z</time>
      </trkpt>
      <trkpt lat="44.27283" lon="1.97048">
        <ele>245.556</ele>
        <time>2019-08-29T08:26:41Z</time>
      </trkpt>
      <trkpt lat="44.2725" lon="1.97089">
        <ele>244.675</ele>
        <time>2019-08-29T08:26:50Z</time>
      </trkpt>
      <trkpt lat="44.27243" lon="1.9708">
        <ele>245.211</ele>
        <time>2019-08-29T08:28:49Z</time>
      </trkpt>
      <trkpt lat="44.27235" lon="1.97067">
        <ele>245.601</ele>
        <time>2019-08-29T08:28:52Z</time>
      </trkpt>
      <trkpt lat="44.27223" lon="1.97047">
        <ele>246.09</ele>
        <time>2019-08-29T08:28:56Z</time>
      </trkpt>
      <trkpt lat="44.27215" lon="1.97031">
        <ele>246.561</ele>
        <time>2019-08-29T08:28:59Z</time>
      </trkpt>
      <trkpt lat="44.27205" lon="1.97012">
        <ele>247.178</ele>
        <time>2019-08-29T08:29:03Z</time>
      </trkpt>
      <trkpt lat="44.27194" lon="1.96999">
        <ele>247.757</ele>
        <time>2019-08-29T08:29:07Z</time>
      </trkpt>
      <trkpt lat="44.27204" lon="1.9701">
        <ele>252.508</ele>
        <time>2019-08-29T08:29:27Z</time>
      </trkpt>
      <trkpt lat="44.27216" lon="1.97035">
        <ele>253.624</ele>
        <time>2019-08-29T08:29:31Z</time>
      </trkpt>
      <trkpt lat="44.27229" lon="1.97062">
        <ele>254.098</ele>
        <time>2019-08-29T08:29:35Z</time>
      </trkpt>
      <trkpt lat="44.27238" lon="1.97076">
        <ele>254.328</ele>
        <time>2019-08-29T08:29:38Z</time>
      </trkpt>
      <trkpt lat="44.27229" lon="1.97069">
        <ele>255.552</ele>
        <time>2019-08-29T08:30:21Z</time>
      </trkpt>
      <trkpt lat="44.27221" lon="1.97061">
        <ele>256.988</ele>
        <time>2019-08-29T08:31:26Z</time>
      </trkpt>
      <trkpt lat="44.27214" lon="1.97052">
        <ele>256.87</ele>
        <time>2019-08-29T08:31:33Z</time>
      </trkpt>
      <trkpt lat="44.27209" lon="1.97041">
        <ele>256.438</ele>
        <time>2019-08-29T08:31:44Z</time>
      </trkpt>
      <trkpt lat="44.27203" lon="1.9703">
        <ele>256.27</ele>
        <time>2019-08-29T08:31:49Z</time>
      </trkpt>
      <trkpt lat="44.27208" lon="1.97041">
        <ele>257.862</ele>
        <time>2019-08-29T08:33:22Z</time>
      </trkpt>
      <trkpt lat="44.27213" lon="1.97053">
        <ele>257.491</ele>
        <time>2019-08-29T08:33:27Z</time>
      </trkpt>
      <trkpt lat="44.27219" lon="1.97063">
        <ele>256.755</ele>
        <time>2019-08-29T08:33:35Z</time>
      </trkpt>
      <trkpt lat="44.27227" lon="1.97073">
        <ele>256.775</ele>
        <time>2019-08-29T08:33:48Z</time>
      </trkpt>
      <trkpt lat="44.27237" lon="1.97084">
        <ele>255.02</ele>
        <time>2019-08-29T08:33:56Z</time>
      </trkpt>
      <trkpt lat="44.27247" lon="1.9709">
        <ele>254.494</ele>
        <time>2019-08-29T08:35:12Z</time>
      </trkpt>
      <trkpt lat="44.27256" lon="1.97098">
        <ele>254.203</ele>
        <time>2019-08-29T08:35:17Z</time>
      </trkpt>
      <trkpt lat="44.2727" lon="1.97078">
        <ele>252.985</ele>
        <time>2019-08-29T08:35:21Z</time>
      </trkpt>
      <trkpt lat="44.27282" lon="1.97056">
        <ele>252.193</ele>
        <time>2019-08-29T08:35:24Z</time>
      </trkpt>
      <trkpt lat="44.27297" lon="1.9703">
        <ele>251.911</ele>
        <time>2019-08-29T08:35:28Z</time>
      </trkpt>
      <trkpt lat="44.27308" lon="1.97012">
        <ele>252.303</ele>
        <time>2019-08-29T08:35:31Z</time>
      </trkpt>
      <trkpt lat="44.27321" lon="1.96999">
        <ele>252.596</ele>
        <time>2019-08-29T08:35:34Z</time>
      </trkpt>
      <trkpt lat="44.27343" lon="1.96994">
        <ele>253.948</ele>
        <time>2019-08-29T08:35:38Z</time>
      </trkpt>
      <trkpt lat="44.27358" lon="1.96991">
        <ele>255.367</ele>
        <time>2019-08-29T08:35:41Z</time>
      </trkpt>
      <trkpt lat="44.27376" lon="1.96975">
        <ele>256.338</ele>
        <time>2019-08-29T08:35:45Z</time>
      </trkpt>
      <trkpt lat="44.27391" lon="1.9695">
        <ele>257.974</ele>
        <time>2019-08-29T08:35:49Z</time>
      </trkpt>
      <trkpt lat="44.27403" lon="1.96924">
        <ele>259.127</ele>
        <time>2019-08-29T08:35:53Z</time>
      </trkpt>
      <trkpt lat="44.27412" lon="1.96906">
        <ele>260.124</ele>
        <time>2019-08-29T08:35:56Z</time>
      </trkpt>
      <trkpt lat="44.27425" lon="1.96882">
        <ele>260.558</ele>
        <time>2019-08-29T08:36:00Z</time>
      </trkpt>
      <trkpt lat="44.27438" lon="1.96856">
        <ele>261.204</ele>
        <time>2019-08-29T08:36:04Z</time>
      </trkpt>
      <trkpt lat="44.27446" lon="1.96838">
        <ele>261.463</ele>
        <time>2019-08-29T08:36:07Z</time>
      </trkpt>
      <trkpt lat="44.27454" lon="1.96812">
        <ele>262.843</ele>
        <time>2019-08-29T08:36:11Z</time>
      </trkpt>
      <trkpt lat="44.27462" lon="1.96782">
        <ele>264.25</ele>
        <time>2019-08-29T08:36:15Z</time>
      </trkpt>
      <trkpt lat="44.27464" lon="1.96759">
        <ele>265.689</ele>
        <time>2019-08-29T08:36:18Z</time>
      </trkpt>
      <trkpt lat="44.27464" lon="1.96732">
        <ele>267.356</ele>
        <time>2019-08-29T08:36:22Z</time>
      </trkpt>
      <trkpt lat="44.27454" lon="1.9673">
        <ele>268.706</ele>
        <time>2019-08-29T08:36:27Z</time>
      </trkpt>
      <trkpt lat="44.27452" lon="1.96746">
        <ele>269.966</ele>
        <time>2019-08-29T08:36:30Z</time>
      </trkpt>
      <trkpt lat="44.27445" lon="1.96761">
        <ele>270.672</ele>
        <time>2019-08-29T08:36:33Z</time>
      </trkpt>
      <trkpt lat="44.27429" lon="1.96776">
        <ele>271.642</ele>
        <time>2019-08-29T08:36:37Z</time>
      </trkpt>
      <trkpt lat="44.27415" lon="1.96784">
        <ele>273.781</ele>
        <time>2019-08-29T08:36:40Z</time>
      </trkpt>
      <trkpt lat="44.27405" lon="1.96787">
        <ele>275.597</ele>
        <time>2019-08-29T08:36:43Z</time>
      </trkpt>
      <trkpt lat="44.2741" lon="1.96772">
        <ele>280.491</ele>
        <time>2019-08-29T08:36:50Z</time>
      </trkpt>
      <trkpt lat="44.27413" lon="1.96759">
        <ele>282.889</ele>
        <time>2019-08-29T08:36:54Z</time>
      </trkpt>
      <trkpt lat="44.27403" lon="1.96763">
        <ele>284.682</ele>
        <time>2019-08-29T08:36:58Z</time>
      </trkpt>
      <trkpt lat="44.2739" lon="1.96765">
        <ele>286.181</ele>
        <time>2019-08-29T08:37:02Z</time>
      </trkpt>
      <trkpt lat="44.27381" lon="1.96754">
        <ele>287.312</ele>
        <time>2019-08-29T08:37:06Z</time>
      </trkpt>
      <trkpt lat="44.27371" lon="1.96749">
        <ele>287.812</ele>
        <time>2019-08-29T08:37:09Z</time>
      </trkpt>
      <trkpt lat="44.27338" lon="1.96685">
        <ele>294.696</ele>
        <time>2019-08-29T08:37:27Z</time>
      </trkpt>
      <trkpt lat="44.27322" lon="1.96673">
        <ele>298.43</ele>
        <time>2019-08-29T08:37:31Z</time>
      </trkpt>
      <trkpt lat="44.27311" lon="1.96665">
        <ele>300.445</ele>
        <time>2019-08-29T08:37:35Z</time>
      </trkpt>
      <trkpt lat="44.273" lon="1.96659">
        <ele>302.289</ele>
        <time>2019-08-29T08:37:39Z</time>
      </trkpt>
      <trkpt lat="44.27288" lon="1.96658">
        <ele>304.489</ele>
        <time>2019-08-29T08:37:43Z</time>
      </trkpt>
      <trkpt lat="44.27275" lon="1.9666">
        <ele>305.648</ele>
        <time>2019-08-29T08:37:47Z</time>
      </trkpt>
      <trkpt lat="44.27236" lon="1.96648">
        <ele>311.548</ele>
        <time>2019-08-29T08:38:04Z</time>
      </trkpt>
      <trkpt lat="44.27234" lon="1.96635">
        <ele>313.248</ele>
        <time>2019-08-29T08:38:48Z</time>
      </trkpt>
      <trkpt lat="44.27238" lon="1.96621">
        <ele>313.617</ele>
        <time>2019-08-29T08:38:52Z</time>
      </trkpt>
      <trkpt lat="44.27242" lon="1.96606">
        <ele>314.279</ele>
        <time>2019-08-29T08:38:55Z</time>
      </trkpt>
      <trkpt lat="44.27248" lon="1.96581">
        <ele>315.614</ele>
        <time>2019-08-29T08:38:59Z</time>
      </trkpt>
      <trkpt lat="44.27256" lon="1.96544">
        <ele>316.972</ele>
        <time>2019-08-29T08:39:03Z</time>
      </trkpt>
      <trkpt lat="44.2726" lon="1.9652">
        <ele>318.999</ele>
        <time>2019-08-29T08:39:07Z</time>
      </trkpt>
      <trkpt lat="44.27264" lon="1.96493">
        <ele>319.711</ele>
        <time>2019-08-29T08:39:11Z</time>
      </trkpt>
      <trkpt lat="44.27265" lon="1.96467">
        <ele>320.127</ele>
        <time>2019-08-29T08:39:15Z</time>
      </trkpt>
      <trkpt lat="44.27264" lon="1.96448">
        <ele>320.566</ele>
        <time>2019-08-29T08:39:18Z</time>
      </trkpt>
      <trkpt lat="44.27259" lon="1.96422">
        <ele>321.227</ele>
        <time>2019-08-29T08:39:22Z</time>
      </trkpt>
      <trkpt lat="44.27254" lon="1.96405">
        <ele>321.986</ele>
        <time>2019-08-29T08:39:25Z</time>
      </trkpt>
      <trkpt lat="44.2725" lon="1.96382">
        <ele>323.125</ele>
        <time>2019-08-29T08:39:29Z</time>
      </trkpt>
      <trkpt lat="44.27241" lon="1.9636">
        <ele>324.432</ele>
        <time>2019-08-29T08:39:33Z</time>
      </trkpt>
      <trkpt lat="44.27231" lon="1.9634">
        <ele>325.869</ele>
        <time>2019-08-29T08:39:36Z</time>
      </trkpt>
      <trkpt lat="44.2722" lon="1.96317">
        <ele>328.332</ele>
        <time>2019-08-29T08:39:40Z</time>
      </trkpt>
      <trkpt lat="44.27207" lon="1.96295">
        <ele>330.765</ele>
        <time>2019-08-29T08:39:44Z</time>
      </trkpt>
      <trkpt lat="44.27198" lon="1.9628">
        <ele>332.635</ele>
        <time>2019-08-29T08:39:47Z</time>
      </trkpt>
      <trkpt lat="44.27191" lon="1.96266">
        <ele>334.501</ele>
        <time>2019-08-29T08:39:51Z</time>
      </trkpt>
      <trkpt lat="44.27185" lon="1.96254">
        <ele>336.072</ele>
        <time>2019-08-29T08:39:57Z</time>
      </trkpt>
      <trkpt lat="44.27165" lon="1.9622">
        <ele>338.295</ele>
        <time>2019-08-29T08:40:16Z</time>
      </trkpt>
      <trkpt lat="44.27152" lon="1.96195">
        <ele>339.279</ele>
        <time>2019-08-29T08:40:20Z</time>
      </trkpt>
      <trkpt lat="44.27145" lon="1.96182">
        <ele>340.221</ele>
        <time>2019-08-29T08:40:23Z</time>
      </trkpt>
      <trkpt lat="44.27135" lon="1.96165">
        <ele>341.011</ele>
        <time>2019-08-29T08:40:27Z</time>
      </trkpt>
      <trkpt lat="44.27128" lon="1.96152">
        <ele>340.975</ele>
        <time>2019-08-29T08:40:30Z</time>
      </trkpt>
      <trkpt lat="44.27121" lon="1.9614">
        <ele>340.432</ele>
        <time>2019-08-29T08:40:33Z</time>
      </trkpt>
      <trkpt lat="44.27112" lon="1.96126">
        <ele>339.452</ele>
        <time>2019-08-29T08:40:37Z</time>
      </trkpt>
      <trkpt lat="44.27099" lon="1.96111">
        <ele>338.037</ele>
        <time>2019-08-29T08:40:41Z</time>
      </trkpt>
      <trkpt lat="44.2709" lon="1.96102">
        <ele>337.98</ele>
        <time>2019-08-29T08:40:44Z</time>
      </trkpt>
      <trkpt lat="44.2708" lon="1.96092">
        <ele>338.776</ele>
        <time>2019-08-29T08:40:48Z</time>
      </trkpt>
      <trkpt lat="44.27071" lon="1.96085">
        <ele>339.306</ele>
        <time>2019-08-29T08:40:51Z</time>
      </trkpt>
      <trkpt lat="44.27062" lon="1.96075">
        <ele>340.052</ele>
        <time>2019-08-29T08:40:54Z</time>
      </trkpt>
      <trkpt lat="44.27051" lon="1.96063">
        <ele>340.604</ele>
        <time>2019-08-29T08:40:58Z</time>
      </trkpt>
      <trkpt lat="44.27043" lon="1.96053">
        <ele>340.334</ele>
        <time>2019-08-29T08:41:01Z</time>
      </trkpt>
      <trkpt lat="44.27033" lon="1.96037">
        <ele>340.62</ele>
        <time>2019-08-29T08:41:05Z</time>
      </trkpt>
      <trkpt lat="44.27025" lon="1.96017">
        <ele>340.953</ele>
        <time>2019-08-29T08:41:09Z</time>
      </trkpt>
      <trkpt lat="44.27021" lon="1.96001">
        <ele>341.564</ele>
        <time>2019-08-29T08:41:12Z</time>
      </trkpt>
      <trkpt lat="44.27018" lon="1.95986">
        <ele>341.722</ele>
        <time>2019-08-29T08:41:15Z</time>
      </trkpt>
      <trkpt lat="44.27015" lon="1.95971">
        <ele>341.712</ele>
        <time>2019-08-29T08:41:18Z</time>
      </trkpt>
      <trkpt lat="44.27013" lon="1.95952">
        <ele>342.063</ele>
        <time>2019-08-29T08:41:22Z</time>
      </trkpt>
      <trkpt lat="44.27015" lon="1.95907">
        <ele>344.511</ele>
        <time>2019-08-29T08:41:30Z</time>
      </trkpt>
      <trkpt lat="44.27011" lon="1.95886">
        <ele>345.721</ele>
        <time>2019-08-29T08:41:34Z</time>
      </trkpt>
      <trkpt lat="44.27005" lon="1.95874">
        <ele>346.276</ele>
        <time>2019-08-29T08:41:37Z</time>
      </trkpt>
      <trkpt lat="44.26999" lon="1.95865">
        <ele>346.977</ele>
        <time>2019-08-29T08:41:40Z</time>
      </trkpt>
      <trkpt lat="44.26992" lon="1.95856">
        <ele>348.168</ele>
        <time>2019-08-29T08:41:43Z</time>
      </trkpt>
      <trkpt lat="44.26985" lon="1.95844">
        <ele>348.816</ele>
        <time>2019-08-29T08:41:47Z</time>
      </trkpt>
      <trkpt lat="44.26979" lon="1.95831">
        <ele>349.856</ele>
        <time>2019-08-29T08:41:50Z</time>
      </trkpt>
      <trkpt lat="44.26972" lon="1.95817">
        <ele>351.093</ele>
        <time>2019-08-29T08:41:54Z</time>
      </trkpt>
      <trkpt lat="44.26963" lon="1.958">
        <ele>351.421</ele>
        <time>2019-08-29T08:41:58Z</time>
      </trkpt>
      <trkpt lat="44.26954" lon="1.95782">
        <ele>351.823</ele>
        <time>2019-08-29T08:42:02Z</time>
      </trkpt>
      <trkpt lat="44.26947" lon="1.95769">
        <ele>352.023</ele>
        <time>2019-08-29T08:42:05Z</time>
      </trkpt>
      <trkpt lat="44.26939" lon="1.95752">
        <ele>352.208</ele>
        <time>2019-08-29T08:42:09Z</time>
      </trkpt>
      <trkpt lat="44.2693" lon="1.95734">
        <ele>352.726</ele>
        <time>2019-08-29T08:42:13Z</time>
      </trkpt>
      <trkpt lat="44.26922" lon="1.95719">
        <ele>352.986</ele>
        <time>2019-08-29T08:42:17Z</time>
      </trkpt>
      <trkpt lat="44.26914" lon="1.95702">
        <ele>353.623</ele>
        <time>2019-08-29T08:42:21Z</time>
      </trkpt>
      <trkpt lat="44.26908" lon="1.95689">
        <ele>354.47</ele>
        <time>2019-08-29T08:42:24Z</time>
      </trkpt>
      <trkpt lat="44.269" lon="1.95673">
        <ele>355.095</ele>
        <time>2019-08-29T08:42:28Z</time>
      </trkpt>
      <trkpt lat="44.26893" lon="1.95657">
        <ele>355.424</ele>
        <time>2019-08-29T08:42:32Z</time>
      </trkpt>
      <trkpt lat="44.26888" lon="1.95646">
        <ele>355.5</ele>
        <time>2019-08-29T08:42:35Z</time>
      </trkpt>
      <trkpt lat="44.26883" lon="1.95634">
        <ele>355.78</ele>
        <time>2019-08-29T08:42:38Z</time>
      </trkpt>
      <trkpt lat="44.26875" lon="1.95613">
        <ele>355.536</ele>
        <time>2019-08-29T08:42:42Z</time>
      </trkpt>
      <trkpt lat="44.26866" lon="1.95595">
        <ele>355.43</ele>
        <time>2019-08-29T08:42:45Z</time>
      </trkpt>
      <trkpt lat="44.26851" lon="1.95575">
        <ele>354.477</ele>
        <time>2019-08-29T08:42:49Z</time>
      </trkpt>
      <trkpt lat="44.26841" lon="1.95561">
        <ele>353.733</ele>
        <time>2019-08-29T08:42:52Z</time>
      </trkpt>
      <trkpt lat="44.2683" lon="1.95545">
        <ele>353.389</ele>
        <time>2019-08-29T08:42:56Z</time>
      </trkpt>
      <trkpt lat="44.26826" lon="1.95534">
        <ele>354.55</ele>
        <time>2019-08-29T08:42:59Z</time>
      </trkpt>
      <trkpt lat="44.26818" lon="1.95518">
        <ele>354.234</ele>
        <time>2019-08-29T08:43:03Z</time>
      </trkpt>
      <trkpt lat="44.26804" lon="1.95504">
        <ele>353.606</ele>
        <time>2019-08-29T08:43:07Z</time>
      </trkpt>
      <trkpt lat="44.26791" lon="1.95492">
        <ele>351.525</ele>
        <time>2019-08-29T08:43:11Z</time>
      </trkpt>
      <trkpt lat="44.26782" lon="1.95483">
        <ele>350.611</ele>
        <time>2019-08-29T08:43:14Z</time>
      </trkpt>
      <trkpt lat="44.26769" lon="1.95471">
        <ele>350.906</ele>
        <time>2019-08-29T08:43:18Z</time>
      </trkpt>
      <trkpt lat="44.2676" lon="1.95463">
        <ele>351.362</ele>
        <time>2019-08-29T08:43:21Z</time>
      </trkpt>
      <trkpt lat="44.26751" lon="1.95454">
        <ele>352.474</ele>
        <time>2019-08-29T08:43:24Z</time>
      </trkpt>
      <trkpt lat="44.26738" lon="1.95443">
        <ele>353.084</ele>
        <time>2019-08-29T08:43:28Z</time>
      </trkpt>
      <trkpt lat="44.26725" lon="1.95431">
        <ele>353.998</ele>
        <time>2019-08-29T08:43:32Z</time>
      </trkpt>
      <trkpt lat="44.26714" lon="1.95417">
        <ele>354.395</ele>
        <time>2019-08-29T08:43:36Z</time>
      </trkpt>
      <trkpt lat="44.26704" lon="1.95407">
        <ele>354.204</ele>
        <time>2019-08-29T08:43:39Z</time>
      </trkpt>
      <trkpt lat="44.26693" lon="1.95395">
        <ele>354.416</ele>
        <time>2019-08-29T08:43:43Z</time>
      </trkpt>
      <trkpt lat="44.26684" lon="1.95384">
        <ele>355.189</ele>
        <time>2019-08-29T08:43:46Z</time>
      </trkpt>
      <trkpt lat="44.26675" lon="1.95366">
        <ele>355.101</ele>
        <time>2019-08-29T08:43:50Z</time>
      </trkpt>
      <trkpt lat="44.26666" lon="1.95347">
        <ele>355.002</ele>
        <time>2019-08-29T08:43:54Z</time>
      </trkpt>
      <trkpt lat="44.2666" lon="1.95333">
        <ele>356.007</ele>
        <time>2019-08-29T08:43:57Z</time>
      </trkpt>
      <trkpt lat="44.26658" lon="1.95319">
        <ele>356.209</ele>
        <time>2019-08-29T08:44:00Z</time>
      </trkpt>
      <trkpt lat="44.26653" lon="1.95301">
        <ele>355.854</ele>
        <time>2019-08-29T08:44:04Z</time>
      </trkpt>
      <trkpt lat="44.2665" lon="1.95287">
        <ele>356.427</ele>
        <time>2019-08-29T08:44:07Z</time>
      </trkpt>
      <trkpt lat="44.26647" lon="1.95268">
        <ele>357.162</ele>
        <time>2019-08-29T08:44:11Z</time>
      </trkpt>
      <trkpt lat="44.2664" lon="1.95249">
        <ele>357.461</ele>
        <time>2019-08-29T08:44:15Z</time>
      </trkpt>
      <trkpt lat="44.26631" lon="1.95226">
        <ele>357.191</ele>
        <time>2019-08-29T08:44:19Z</time>
      </trkpt>
      <trkpt lat="44.26622" lon="1.95202">
        <ele>356.432</ele>
        <time>2019-08-29T08:44:23Z</time>
      </trkpt>
      <trkpt lat="44.26613" lon="1.95182">
        <ele>356.086</ele>
        <time>2019-08-29T08:44:27Z</time>
      </trkpt>
      <trkpt lat="44.266" lon="1.95168">
        <ele>355.721</ele>
        <time>2019-08-29T08:44:31Z</time>
      </trkpt>
      <trkpt lat="44.26585" lon="1.95159">
        <ele>355.61</ele>
        <time>2019-08-29T08:44:35Z</time>
      </trkpt>
      <trkpt lat="44.26571" lon="1.95153">
        <ele>356.402</ele>
        <time>2019-08-29T08:44:39Z</time>
      </trkpt>
      <trkpt lat="44.26563" lon="1.95161">
        <ele>359.546</ele>
        <time>2019-08-29T08:44:43Z</time>
      </trkpt>
      <trkpt lat="44.26554" lon="1.95179">
        <ele>359.097</ele>
        <time>2019-08-29T08:44:47Z</time>
      </trkpt>
      <trkpt lat="44.26554" lon="1.95199">
        <ele>360.223</ele>
        <time>2019-08-29T08:44:51Z</time>
      </trkpt>
      <trkpt lat="44.26558" lon="1.95221">
        <ele>359.682</ele>
        <time>2019-08-29T08:44:55Z</time>
      </trkpt>
      <trkpt lat="44.26565" lon="1.95239">
        <ele>361.256</ele>
        <time>2019-08-29T08:44:59Z</time>
      </trkpt>
      <trkpt lat="44.26568" lon="1.95252">
        <ele>361.947</ele>
        <time>2019-08-29T08:45:02Z</time>
      </trkpt>
      <trkpt lat="44.26569" lon="1.95268">
        <ele>362.388</ele>
        <time>2019-08-29T08:45:05Z</time>
      </trkpt>
      <trkpt lat="44.26573" lon="1.95284">
        <ele>362.749</ele>
        <time>2019-08-29T08:45:08Z</time>
      </trkpt>
      <trkpt lat="44.26576" lon="1.95298">
        <ele>362.684</ele>
        <time>2019-08-29T08:45:11Z</time>
      </trkpt>
      <trkpt lat="44.26575" lon="1.95317">
        <ele>363.83</ele>
        <time>2019-08-29T08:45:15Z</time>
      </trkpt>
      <trkpt lat="44.26565" lon="1.95331">
        <ele>363.993</ele>
        <time>2019-08-29T08:45:19Z</time>
      </trkpt>
      <trkpt lat="44.26558" lon="1.95345">
        <ele>363.374</ele>
        <time>2019-08-29T08:45:23Z</time>
      </trkpt>
      <trkpt lat="44.26549" lon="1.9536">
        <ele>363.453</ele>
        <time>2019-08-29T08:45:27Z</time>
      </trkpt>
      <trkpt lat="44.26545" lon="1.95372">
        <ele>363.873</ele>
        <time>2019-08-29T08:45:30Z</time>
      </trkpt>
      <trkpt lat="44.2654" lon="1.95389">
        <ele>364.378</ele>
        <time>2019-08-29T08:45:34Z</time>
      </trkpt>
      <trkpt lat="44.26537" lon="1.95403">
        <ele>366.265</ele>
        <time>2019-08-29T08:45:37Z</time>
      </trkpt>
      <trkpt lat="44.26537" lon="1.95423">
        <ele>366.044</ele>
        <time>2019-08-29T08:45:41Z</time>
      </trkpt>
      <trkpt lat="44.26541" lon="1.95442">
        <ele>367.043</ele>
        <time>2019-08-29T08:45:45Z</time>
      </trkpt>
      <trkpt lat="44.26545" lon="1.95459">
        <ele>369.327</ele>
        <time>2019-08-29T08:45:49Z</time>
      </trkpt>
      <trkpt lat="44.26549" lon="1.95473">
        <ele>370.679</ele>
        <time>2019-08-29T08:45:52Z</time>
      </trkpt>
      <trkpt lat="44.26555" lon="1.95494">
        <ele>373.216</ele>
        <time>2019-08-29T08:45:56Z</time>
      </trkpt>
      <trkpt lat="44.2656" lon="1.95507">
        <ele>373.656</ele>
        <time>2019-08-29T08:45:59Z</time>
      </trkpt>
      <trkpt lat="44.26565" lon="1.95525">
        <ele>374.341</ele>
        <time>2019-08-29T08:46:03Z</time>
      </trkpt>
      <trkpt lat="44.26573" lon="1.95544">
        <ele>377.175</ele>
        <time>2019-08-29T08:46:07Z</time>
      </trkpt>
      <trkpt lat="44.26581" lon="1.9556">
        <ele>377.727</ele>
        <time>2019-08-29T08:46:11Z</time>
      </trkpt>
      <trkpt lat="44.26589" lon="1.95575">
        <ele>376.986</ele>
        <time>2019-08-29T08:46:15Z</time>
      </trkpt>
      <trkpt lat="44.26596" lon="1.95585">
        <ele>376.502</ele>
        <time>2019-08-29T08:46:18Z</time>
      </trkpt>
      <trkpt lat="44.26602" lon="1.95598">
        <ele>376.083</ele>
        <time>2019-08-29T08:46:21Z</time>
      </trkpt>
      <trkpt lat="44.2661" lon="1.95615">
        <ele>375.467</ele>
        <time>2019-08-29T08:46:25Z</time>
      </trkpt>
      <trkpt lat="44.26617" lon="1.95633">
        <ele>374.673</ele>
        <time>2019-08-29T08:46:29Z</time>
      </trkpt>
      <trkpt lat="44.2662" lon="1.95649">
        <ele>374.353</ele>
        <time>2019-08-29T08:46:32Z</time>
      </trkpt>
      <trkpt lat="44.26622" lon="1.95673">
        <ele>373.617</ele>
        <time>2019-08-29T08:46:36Z</time>
      </trkpt>
      <trkpt lat="44.26624" lon="1.95695">
        <ele>373.553</ele>
        <time>2019-08-29T08:46:39Z</time>
      </trkpt>
      <trkpt lat="44.26628" lon="1.95721">
        <ele>373.455</ele>
        <time>2019-08-29T08:46:42Z</time>
      </trkpt>
      <trkpt lat="44.26639" lon="1.95746">
        <ele>374.369</ele>
        <time>2019-08-29T08:46:46Z</time>
      </trkpt>
      <trkpt lat="44.26633" lon="1.95735">
        <ele>371.606</ele>
        <time>2019-08-29T08:46:59Z</time>
      </trkpt>
      <trkpt lat="44.26622" lon="1.95727">
        <ele>371.117</ele>
        <time>2019-08-29T08:47:03Z</time>
      </trkpt>
      <trkpt lat="44.26609" lon="1.95718">
        <ele>370.632</ele>
        <time>2019-08-29T08:47:07Z</time>
      </trkpt>
      <trkpt lat="44.26595" lon="1.95708">
        <ele>369.744</ele>
        <time>2019-08-29T08:47:11Z</time>
      </trkpt>
      <trkpt lat="44.26582" lon="1.95699">
        <ele>369.456</ele>
        <time>2019-08-29T08:47:15Z</time>
      </trkpt>
      <trkpt lat="44.2657" lon="1.95691">
        <ele>369.717</ele>
        <time>2019-08-29T08:47:19Z</time>
      </trkpt>
      <trkpt lat="44.26559" lon="1.95683">
        <ele>369.369</ele>
        <time>2019-08-29T08:47:23Z</time>
      </trkpt>
      <trkpt lat="44.26548" lon="1.9568">
        <ele>368.893</ele>
        <time>2019-08-29T08:47:26Z</time>
      </trkpt>
      <trkpt lat="44.26534" lon="1.95673">
        <ele>369.39</ele>
        <time>2019-08-29T08:47:30Z</time>
      </trkpt>
      <trkpt lat="44.2652" lon="1.95668">
        <ele>369.634</ele>
        <time>2019-08-29T08:47:34Z</time>
      </trkpt>
      <trkpt lat="44.26506" lon="1.95663">
        <ele>371.025</ele>
        <time>2019-08-29T08:47:38Z</time>
      </trkpt>
      <trkpt lat="44.26495" lon="1.95661">
        <ele>372.353</ele>
        <time>2019-08-29T08:47:41Z</time>
      </trkpt>
      <trkpt lat="44.26485" lon="1.9566">
        <ele>373.318</ele>
        <time>2019-08-29T08:47:44Z</time>
      </trkpt>
      <trkpt lat="44.26474" lon="1.95661">
        <ele>374.668</ele>
        <time>2019-08-29T08:48:19Z</time>
      </trkpt>
      <trkpt lat="44.26467" lon="1.95669">
        <ele>373.014</ele>
        <time>2019-08-29T08:48:23Z</time>
      </trkpt>
      <trkpt lat="44.26456" lon="1.95684">
        <ele>374.093</ele>
        <time>2019-08-29T08:49:23Z</time>
      </trkpt>
      <trkpt lat="44.26447" lon="1.9569">
        <ele>373.141</ele>
        <time>2019-08-29T08:50:22Z</time>
      </trkpt>
      <trkpt lat="44.26439" lon="1.95699">
        <ele>372.736</ele>
        <time>2019-08-29T08:50:25Z</time>
      </trkpt>
      <trkpt lat="44.2643" lon="1.95705">
        <ele>373.316</ele>
        <time>2019-08-29T08:50:30Z</time>
      </trkpt>
      <trkpt lat="44.26255" lon="1.95774">
        <ele>370.116</ele>
        <time>2019-08-29T08:52:56Z</time>
      </trkpt>
      <trkpt lat="44.26269" lon="1.95804">
        <ele>369.466</ele>
        <time>2019-08-29T08:53:02Z</time>
      </trkpt>
      <trkpt lat="44.26277" lon="1.95822">
        <ele>369.165</ele>
        <time>2019-08-29T08:53:06Z</time>
      </trkpt>
      <trkpt lat="44.26283" lon="1.95839">
        <ele>369.236</ele>
        <time>2019-08-29T08:53:10Z</time>
      </trkpt>
      <trkpt lat="44.2628" lon="1.95944">
        <ele>368.782</ele>
        <time>2019-08-29T08:53:32Z</time>
      </trkpt>
      <trkpt lat="44.26276" lon="1.9596">
        <ele>368.519</ele>
        <time>2019-08-29T08:53:35Z</time>
      </trkpt>
      <trkpt lat="44.26272" lon="1.95973">
        <ele>369.319</ele>
        <time>2019-08-29T08:53:38Z</time>
      </trkpt>
      <trkpt lat="44.26268" lon="1.95989">
        <ele>370.744</ele>
        <time>2019-08-29T08:53:42Z</time>
      </trkpt>
      <trkpt lat="44.26262" lon="1.96006">
        <ele>372.473</ele>
        <time>2019-08-29T08:53:47Z</time>
      </trkpt>
      <trkpt lat="44.26257" lon="1.96016">
        <ele>372.644</ele>
        <time>2019-08-29T08:53:50Z</time>
      </trkpt>
      <trkpt lat="44.26247" lon="1.96018">
        <ele>373.45</ele>
        <time>2019-08-29T08:53:54Z</time>
      </trkpt>
      <trkpt lat="44.26235" lon="1.96009">
        <ele>374.445</ele>
        <time>2019-08-29T08:53:59Z</time>
      </trkpt>
      <trkpt lat="44.26227" lon="1.96003">
        <ele>375.681</ele>
        <time>2019-08-29T08:54:03Z</time>
      </trkpt>
      <trkpt lat="44.26219" lon="1.95995">
        <ele>377.369</ele>
        <time>2019-08-29T08:54:07Z</time>
      </trkpt>
      <trkpt lat="44.26206" lon="1.95984">
        <ele>380.268</ele>
        <time>2019-08-29T08:54:12Z</time>
      </trkpt>
      <trkpt lat="44.26193" lon="1.95972">
        <ele>381.852</ele>
        <time>2019-08-29T08:54:16Z</time>
      </trkpt>
      <trkpt lat="44.26174" lon="1.95963">
        <ele>385.163</ele>
        <time>2019-08-29T08:54:20Z</time>
      </trkpt>
      <trkpt lat="44.26159" lon="1.95962">
        <ele>387.195</ele>
        <time>2019-08-29T08:54:23Z</time>
      </trkpt>
      <trkpt lat="44.2614" lon="1.95964">
        <ele>390.634</ele>
        <time>2019-08-29T08:54:27Z</time>
      </trkpt>
      <trkpt lat="44.26126" lon="1.95968">
        <ele>392.791</ele>
        <time>2019-08-29T08:54:30Z</time>
      </trkpt>
      <trkpt lat="44.26111" lon="1.95979">
        <ele>394.468</ele>
        <time>2019-08-29T08:54:34Z</time>
      </trkpt>
      <trkpt lat="44.26095" lon="1.95994">
        <ele>396.305</ele>
        <time>2019-08-29T08:54:38Z</time>
      </trkpt>
      <trkpt lat="44.26083" lon="1.96005">
        <ele>397.621</ele>
        <time>2019-08-29T08:54:41Z</time>
      </trkpt>
      <trkpt lat="44.26066" lon="1.96015">
        <ele>398.944</ele>
        <time>2019-08-29T08:54:45Z</time>
      </trkpt>
      <trkpt lat="44.26053" lon="1.96016">
        <ele>399.911</ele>
        <time>2019-08-29T08:54:48Z</time>
      </trkpt>
      <trkpt lat="44.26038" lon="1.96011">
        <ele>403.097</ele>
        <time>2019-08-29T08:54:52Z</time>
      </trkpt>
      <trkpt lat="44.26027" lon="1.96004">
        <ele>405.636</ele>
        <time>2019-08-29T08:54:55Z</time>
      </trkpt>
      <trkpt lat="44.26018" lon="1.96006">
        <ele>407.214</ele>
        <time>2019-08-29T08:56:37Z</time>
      </trkpt>
      <trkpt lat="44.2601" lon="1.96014">
        <ele>407.026</ele>
        <time>2019-08-29T08:56:41Z</time>
      </trkpt>
      <trkpt lat="44.25995" lon="1.96025">
        <ele>407.077</ele>
        <time>2019-08-29T08:56:46Z</time>
      </trkpt>
      <trkpt lat="44.25987" lon="1.96037">
        <ele>406.927</ele>
        <time>2019-08-29T08:56:49Z</time>
      </trkpt>
      <trkpt lat="44.25883" lon="1.96199">
        <ele>394.696</ele>
        <time>2019-08-29T08:57:31Z</time>
      </trkpt>
      <trkpt lat="44.25297" lon="1.96194">
        <ele>360.656</ele>
        <time>2019-08-29T09:01:49Z</time>
      </trkpt>
      <trkpt lat="44.25306" lon="1.96202">
        <ele>362.91</ele>
        <time>2019-08-29T09:01:53Z</time>
      </trkpt>
      <trkpt lat="44.25343" lon="1.96265">
        <ele>366.354</ele>
        <time>2019-08-29T09:02:34Z</time>
      </trkpt>
      <trkpt lat="44.25355" lon="1.96467">
        <ele>374.156</ele>
        <time>2019-08-29T09:03:40Z</time>
      </trkpt>
      <trkpt lat="44.24852" lon="1.96796">
        <ele>406.476</ele>
        <time>2019-08-29T09:07:25Z</time>
      </trkpt>
      <trkpt lat="44.24721" lon="1.96968">
        <ele>439.053</ele>
        <time>2019-08-29T09:09:13Z</time>
      </trkpt>
      <trkpt lat="44.24715" lon="1.96957">
        <ele>444.579</ele>
        <time>2019-08-29T09:10:08Z</time>
      </trkpt>
      <trkpt lat="44.24708" lon="1.96948">
        <ele>443.721</ele>
        <time>2019-08-29T09:10:16Z</time>
      </trkpt>
      <trkpt lat="44.24704" lon="1.96936">
        <ele>443.185</ele>
        <time>2019-08-29T09:10:20Z</time>
      </trkpt>
      <trkpt lat="44.24698" lon="1.96926">
        <ele>441.891</ele>
        <time>2019-08-29T09:10:24Z</time>
      </trkpt>
      <trkpt lat="44.24691" lon="1.96915">
        <ele>442.567</ele>
        <time>2019-08-29T09:10:30Z</time>
      </trkpt>
      <trkpt lat="44.24685" lon="1.96904">
        <ele>443.042</ele>
        <time>2019-08-29T09:10:34Z</time>
      </trkpt>
      <trkpt lat="44.24676" lon="1.96898">
        <ele>443.489</ele>
        <time>2019-08-29T09:10:39Z</time>
      </trkpt>
      <trkpt lat="44.24667" lon="1.96888">
        <ele>443.569</ele>
        <time>2019-08-29T09:10:44Z</time>
      </trkpt>
      <trkpt lat="44.24651" lon="1.96872">
        <ele>443.481</ele>
        <time>2019-08-29T09:10:55Z</time>
      </trkpt>
      <trkpt lat="44.24642" lon="1.96864">
        <ele>443.441</ele>
        <time>2019-08-29T09:10:59Z</time>
      </trkpt>
      <trkpt lat="44.24633" lon="1.96866">
        <ele>445.088</ele>
        <time>2019-08-29T09:11:09Z</time>
      </trkpt>
      <trkpt lat="44.24636" lon="1.96882">
        <ele>448.2</ele>
        <time>2019-08-29T09:11:19Z</time>
      </trkpt>
      <trkpt lat="44.2464" lon="1.96894">
        <ele>449.806</ele>
        <time>2019-08-29T09:11:25Z</time>
      </trkpt>
      <trkpt lat="44.24646" lon="1.96906">
        <ele>452.315</ele>
        <time>2019-08-29T09:11:30Z</time>
      </trkpt>
      <trkpt lat="44.24673" lon="1.96916">
        <ele>457.182</ele>
        <time>2019-08-29T09:16:59Z</time>
      </trkpt>
      <trkpt lat="44.24684" lon="1.96917">
        <ele>456.03</ele>
        <time>2019-08-29T09:17:03Z</time>
      </trkpt>
      <trkpt lat="44.24691" lon="1.96926">
        <ele>454.394</ele>
        <time>2019-08-29T09:17:07Z</time>
      </trkpt>
      <trkpt lat="44.24698" lon="1.96937">
        <ele>453.232</ele>
        <time>2019-08-29T09:17:11Z</time>
      </trkpt>
      <trkpt lat="44.24704" lon="1.96946">
        <ele>452.81</ele>
        <time>2019-08-29T09:17:15Z</time>
      </trkpt>
      <trkpt lat="44.24709" lon="1.96957">
        <ele>451.512</ele>
        <time>2019-08-29T09:17:20Z</time>
      </trkpt>
      <trkpt lat="44.2471" lon="1.96971">
        <ele>450.012</ele>
        <time>2019-08-29T09:17:25Z</time>
      </trkpt>
      <trkpt lat="44.24706" lon="1.96984">
        <ele>449.613</ele>
        <time>2019-08-29T09:17:29Z</time>
      </trkpt>
      <trkpt lat="44.24701" lon="1.96996">
        <ele>448.657</ele>
        <time>2019-08-29T09:17:33Z</time>
      </trkpt>
      <trkpt lat="44.24695" lon="1.97008">
        <ele>448.391</ele>
        <time>2019-08-29T09:17:38Z</time>
      </trkpt>
      <trkpt lat="44.2469" lon="1.97019">
        <ele>448.293</ele>
        <time>2019-08-29T09:17:42Z</time>
      </trkpt>
      <trkpt lat="44.24683" lon="1.97031">
        <ele>448.744</ele>
        <time>2019-08-29T09:17:47Z</time>
      </trkpt>
      <trkpt lat="44.24678" lon="1.97042">
        <ele>449.47</ele>
        <time>2019-08-29T09:17:51Z</time>
      </trkpt>
      <trkpt lat="44.24672" lon="1.97052">
        <ele>450.468</ele>
        <time>2019-08-29T09:17:55Z</time>
      </trkpt>
      <trkpt lat="44.24666" lon="1.97061">
        <ele>452.855</ele>
        <time>2019-08-29T09:17:59Z</time>
      </trkpt>
      <trkpt lat="44.24657" lon="1.97068">
        <ele>455.017</ele>
        <time>2019-08-29T09:18:04Z</time>
      </trkpt>
      <trkpt lat="44.24649" lon="1.97079">
        <ele>457.914</ele>
        <time>2019-08-29T09:18:09Z</time>
      </trkpt>
      <trkpt lat="44.2464" lon="1.97088">
        <ele>459.793</ele>
        <time>2019-08-29T09:18:14Z</time>
      </trkpt>
      <trkpt lat="44.24632" lon="1.97095">
        <ele>461.215</ele>
        <time>2019-08-29T09:18:19Z</time>
      </trkpt>
      <trkpt lat="44.24623" lon="1.97094">
        <ele>465.542</ele>
        <time>2019-08-29T09:18:23Z</time>
      </trkpt>
      <trkpt lat="44.24616" lon="1.97102">
        <ele>468.869</ele>
        <time>2019-08-29T09:18:29Z</time>
      </trkpt>
      <trkpt lat="44.24623" lon="1.97122">
        <ele>469.806</ele>
        <time>2019-08-29T09:18:33Z</time>
      </trkpt>
      <trkpt lat="44.24636" lon="1.97138">
        <ele>470.902</ele>
        <time>2019-08-29T09:18:37Z</time>
      </trkpt>
      <trkpt lat="44.2465" lon="1.97154">
        <ele>471.513</ele>
        <time>2019-08-29T09:18:41Z</time>
      </trkpt>
      <trkpt lat="44.24662" lon="1.97165">
        <ele>471.186</ele>
        <time>2019-08-29T09:18:44Z</time>
      </trkpt>
      <trkpt lat="44.24678" lon="1.97178">
        <ele>472.362</ele>
        <time>2019-08-29T09:18:48Z</time>
      </trkpt>
      <trkpt lat="44.2469" lon="1.97188">
        <ele>472.675</ele>
        <time>2019-08-29T09:18:51Z</time>
      </trkpt>
      <trkpt lat="44.24705" lon="1.97199">
        <ele>472.581</ele>
        <time>2019-08-29T09:18:55Z</time>
      </trkpt>
      <trkpt lat="44.24721" lon="1.97209">
        <ele>471.382</ele>
        <time>2019-08-29T09:18:59Z</time>
      </trkpt>
      <trkpt lat="44.24736" lon="1.97218">
        <ele>471.383</ele>
        <time>2019-08-29T09:19:03Z</time>
      </trkpt>
      <trkpt lat="44.24746" lon="1.97225">
        <ele>471.434</ele>
        <time>2019-08-29T09:19:06Z</time>
      </trkpt>
      <trkpt lat="44.24754" lon="1.97232">
        <ele>470.547</ele>
        <time>2019-08-29T09:19:09Z</time>
      </trkpt>
      <trkpt lat="44.24764" lon="1.97238">
        <ele>467.874</ele>
        <time>2019-08-29T09:19:26Z</time>
      </trkpt>
      <trkpt lat="44.24778" lon="1.97249">
        <ele>467.398</ele>
        <time>2019-08-29T09:19:30Z</time>
      </trkpt>
      <trkpt lat="44.24788" lon="1.97257">
        <ele>466.225</ele>
        <time>2019-08-29T09:19:33Z</time>
      </trkpt>
      <trkpt lat="44.24806" lon="1.97266">
        <ele>465.655</ele>
        <time>2019-08-29T09:19:37Z</time>
      </trkpt>
      <trkpt lat="44.24823" lon="1.97273">
        <ele>464.502</ele>
        <time>2019-08-29T09:19:41Z</time>
      </trkpt>
      <trkpt lat="44.2484" lon="1.9728">
        <ele>462.713</ele>
        <time>2019-08-29T09:19:45Z</time>
      </trkpt>
      <trkpt lat="44.24859" lon="1.97288">
        <ele>459.928</ele>
        <time>2019-08-29T09:19:49Z</time>
      </trkpt>
      <trkpt lat="44.24874" lon="1.97295">
        <ele>457.677</ele>
        <time>2019-08-29T09:19:52Z</time>
      </trkpt>
      <trkpt lat="44.2489" lon="1.97302">
        <ele>456.732</ele>
        <time>2019-08-29T09:19:55Z</time>
      </trkpt>
      <trkpt lat="44.24912" lon="1.97311">
        <ele>454.879</ele>
        <time>2019-08-29T09:19:59Z</time>
      </trkpt>
      <trkpt lat="44.24927" lon="1.97318">
        <ele>453.072</ele>
        <time>2019-08-29T09:20:03Z</time>
      </trkpt>
      <trkpt lat="44.24939" lon="1.97322">
        <ele>452.75</ele>
        <time>2019-08-29T09:20:07Z</time>
      </trkpt>
      <trkpt lat="44.24951" lon="1.97325">
        <ele>452.348</ele>
        <time>2019-08-29T09:20:10Z</time>
      </trkpt>
      <trkpt lat="44.24968" lon="1.9733">
        <ele>453.243</ele>
        <time>2019-08-29T09:20:14Z</time>
      </trkpt>
      <trkpt lat="44.24981" lon="1.97334">
        <ele>453.231</ele>
        <time>2019-08-29T09:20:17Z</time>
      </trkpt>
      <trkpt lat="44.24998" lon="1.97338">
        <ele>452.544</ele>
        <time>2019-08-29T09:20:21Z</time>
      </trkpt>
      <trkpt lat="44.2501" lon="1.97341">
        <ele>451.77</ele>
        <time>2019-08-29T09:20:24Z</time>
      </trkpt>
      <trkpt lat="44.25025" lon="1.97343">
        <ele>451.169</ele>
        <time>2019-08-29T09:20:28Z</time>
      </trkpt>
      <trkpt lat="44.25036" lon="1.97342">
        <ele>450.335</ele>
        <time>2019-08-29T09:20:31Z</time>
      </trkpt>
      <trkpt lat="44.25052" lon="1.97334">
        <ele>449.892</ele>
        <time>2019-08-29T09:20:35Z</time>
      </trkpt>
      <trkpt lat="44.25066" lon="1.97328">
        <ele>449.796</ele>
        <time>2019-08-29T09:20:39Z</time>
      </trkpt>
      <trkpt lat="44.25077" lon="1.97323">
        <ele>450.031</ele>
        <time>2019-08-29T09:20:42Z</time>
      </trkpt>
      <trkpt lat="44.25087" lon="1.97318">
        <ele>449.569</ele>
        <time>2019-08-29T09:20:45Z</time>
      </trkpt>
      <trkpt lat="44.25098" lon="1.97315">
        <ele>449.52</ele>
        <time>2019-08-29T09:20:48Z</time>
      </trkpt>
      <trkpt lat="44.2511" lon="1.9731">
        <ele>449.444</ele>
        <time>2019-08-29T09:20:52Z</time>
      </trkpt>
      <trkpt lat="44.25119" lon="1.97308">
        <ele>449.287</ele>
        <time>2019-08-29T09:20:55Z</time>
      </trkpt>
      <trkpt lat="44.2513" lon="1.97305">
        <ele>448.875</ele>
        <time>2019-08-29T09:20:59Z</time>
      </trkpt>
      <trkpt lat="44.25138" lon="1.97299">
        <ele>449.145</ele>
        <time>2019-08-29T09:21:09Z</time>
      </trkpt>
      <trkpt lat="44.25149" lon="1.97295">
        <ele>449.055</ele>
        <time>2019-08-29T09:21:13Z</time>
      </trkpt>
      <trkpt lat="44.25163" lon="1.97286">
        <ele>449.633</ele>
        <time>2019-08-29T09:21:17Z</time>
      </trkpt>
      <trkpt lat="44.25173" lon="1.97281">
        <ele>449.837</ele>
        <time>2019-08-29T09:21:20Z</time>
      </trkpt>
      <trkpt lat="44.25186" lon="1.97274">
        <ele>449.852</ele>
        <time>2019-08-29T09:21:24Z</time>
      </trkpt>
      <trkpt lat="44.25195" lon="1.97269">
        <ele>450.253</ele>
        <time>2019-08-29T09:21:27Z</time>
      </trkpt>
      <trkpt lat="44.25208" lon="1.97264">
        <ele>450.822</ele>
        <time>2019-08-29T09:21:31Z</time>
      </trkpt>
      <trkpt lat="44.25219" lon="1.97262">
        <ele>450.947</ele>
        <time>2019-08-29T09:21:34Z</time>
      </trkpt>
      <trkpt lat="44.25234" lon="1.97258">
        <ele>451.454</ele>
        <time>2019-08-29T09:21:38Z</time>
      </trkpt>
      <trkpt lat="44.25245" lon="1.97255">
        <ele>452.04</ele>
        <time>2019-08-29T09:21:41Z</time>
      </trkpt>
      <trkpt lat="44.2526" lon="1.97248">
        <ele>453.453</ele>
        <time>2019-08-29T09:21:45Z</time>
      </trkpt>
      <trkpt lat="44.2527" lon="1.97242">
        <ele>454.668</ele>
        <time>2019-08-29T09:21:48Z</time>
      </trkpt>
      <trkpt lat="44.25281" lon="1.97232">
        <ele>455.888</ele>
        <time>2019-08-29T09:21:52Z</time>
      </trkpt>
      <trkpt lat="44.25291" lon="1.97223">
        <ele>456.738</ele>
        <time>2019-08-29T09:21:57Z</time>
      </trkpt>
      <trkpt lat="44.25303" lon="1.97216">
        <ele>458.989</ele>
        <time>2019-08-29T09:22:01Z</time>
      </trkpt>
      <trkpt lat="44.25316" lon="1.97207">
        <ele>459.72</ele>
        <time>2019-08-29T09:22:04Z</time>
      </trkpt>
      <trkpt lat="44.25325" lon="1.97198">
        <ele>460.569</ele>
        <time>2019-08-29T09:22:07Z</time>
      </trkpt>
      <trkpt lat="44.25339" lon="1.97188">
        <ele>460.046</ele>
        <time>2019-08-29T09:22:11Z</time>
      </trkpt>
      <trkpt lat="44.25353" lon="1.97175">
        <ele>459.507</ele>
        <time>2019-08-29T09:22:15Z</time>
      </trkpt>
      <trkpt lat="44.25365" lon="1.97167">
        <ele>459.997</ele>
        <time>2019-08-29T09:22:18Z</time>
      </trkpt>
      <trkpt lat="44.25381" lon="1.97157">
        <ele>460.222</ele>
        <time>2019-08-29T09:22:22Z</time>
      </trkpt>
      <trkpt lat="44.25398" lon="1.97148">
        <ele>460.328</ele>
        <time>2019-08-29T09:22:26Z</time>
      </trkpt>
      <trkpt lat="44.25409" lon="1.97143">
        <ele>460.529</ele>
        <time>2019-08-29T09:22:29Z</time>
      </trkpt>
      <trkpt lat="44.25426" lon="1.97136">
        <ele>461.263</ele>
        <time>2019-08-29T09:22:33Z</time>
      </trkpt>
      <trkpt lat="44.25442" lon="1.9713">
        <ele>461.152</ele>
        <time>2019-08-29T09:22:37Z</time>
      </trkpt>
      <trkpt lat="44.25454" lon="1.97128">
        <ele>460.429</ele>
        <time>2019-08-29T09:22:40Z</time>
      </trkpt>
      <trkpt lat="44.2547" lon="1.97128">
        <ele>459.384</ele>
        <time>2019-08-29T09:22:44Z</time>
      </trkpt>
      <trkpt lat="44.25483" lon="1.97128">
        <ele>458.486</ele>
        <time>2019-08-29T09:22:47Z</time>
      </trkpt>
      <trkpt lat="44.25495" lon="1.97126">
        <ele>457.423</ele>
        <time>2019-08-29T09:22:50Z</time>
      </trkpt>
      <trkpt lat="44.25509" lon="1.97126">
        <ele>456.117</ele>
        <time>2019-08-29T09:22:54Z</time>
      </trkpt>
      <trkpt lat="44.25521" lon="1.97128">
        <ele>454.81</ele>
        <time>2019-08-29T09:22:57Z</time>
      </trkpt>
      <trkpt lat="44.25535" lon="1.97131">
        <ele>453.361</ele>
        <time>2019-08-29T09:23:01Z</time>
      </trkpt>
      <trkpt lat="44.25547" lon="1.97136">
        <ele>451.936</ele>
        <time>2019-08-29T09:23:04Z</time>
      </trkpt>
      <trkpt lat="44.2558" lon="1.97149">
        <ele>447.763</ele>
        <time>2019-08-29T09:23:13Z</time>
      </trkpt>
      <trkpt lat="44.256" lon="1.9716">
        <ele>445.746</ele>
        <time>2019-08-29T09:23:17Z</time>
      </trkpt>
      <trkpt lat="44.2561" lon="1.97166">
        <ele>445.508</ele>
        <time>2019-08-29T09:23:21Z</time>
      </trkpt>
      <trkpt lat="44.25622" lon="1.9717">
        <ele>444.805</ele>
        <time>2019-08-29T09:23:25Z</time>
      </trkpt>
      <trkpt lat="44.25633" lon="1.97175">
        <ele>443.94</ele>
        <time>2019-08-29T09:23:28Z</time>
      </trkpt>
      <trkpt lat="44.25651" lon="1.97182">
        <ele>442.372</ele>
        <time>2019-08-29T09:23:32Z</time>
      </trkpt>
      <trkpt lat="44.25666" lon="1.97186">
        <ele>441.092</ele>
        <time>2019-08-29T09:23:35Z</time>
      </trkpt>
      <trkpt lat="44.25683" lon="1.97191">
        <ele>438.707</ele>
        <time>2019-08-29T09:23:39Z</time>
      </trkpt>
      <trkpt lat="44.25699" lon="1.97197">
        <ele>436.634</ele>
        <time>2019-08-29T09:23:43Z</time>
      </trkpt>
      <trkpt lat="44.25711" lon="1.97205">
        <ele>433.648</ele>
        <time>2019-08-29T09:23:47Z</time>
      </trkpt>
      <trkpt lat="44.2572" lon="1.97215">
        <ele>428.679</ele>
        <time>2019-08-29T09:24:29Z</time>
      </trkpt>
      <trkpt lat="44.25735" lon="1.9723">
        <ele>426.955</ele>
        <time>2019-08-29T09:24:33Z</time>
      </trkpt>
      <trkpt lat="44.25749" lon="1.97237">
        <ele>425.04</ele>
        <time>2019-08-29T09:24:37Z</time>
      </trkpt>
      <trkpt lat="44.25765" lon="1.97246">
        <ele>423.692</ele>
        <time>2019-08-29T09:24:42Z</time>
      </trkpt>
      <trkpt lat="44.25781" lon="1.97256">
        <ele>421.493</ele>
        <time>2019-08-29T09:24:45Z</time>
      </trkpt>
      <trkpt lat="44.25796" lon="1.97265">
        <ele>419.563</ele>
        <time>2019-08-29T09:24:49Z</time>
      </trkpt>
      <trkpt lat="44.2581" lon="1.97271">
        <ele>417.557</ele>
        <time>2019-08-29T09:24:52Z</time>
      </trkpt>
      <trkpt lat="44.25829" lon="1.97282">
        <ele>415.155</ele>
        <time>2019-08-29T09:24:56Z</time>
      </trkpt>
      <trkpt lat="44.25845" lon="1.97289">
        <ele>413.234</ele>
        <time>2019-08-29T09:25:00Z</time>
      </trkpt>
      <trkpt lat="44.25859" lon="1.97289">
        <ele>410.873</ele>
        <time>2019-08-29T09:25:04Z</time>
      </trkpt>
      <trkpt lat="44.25868" lon="1.97296">
        <ele>407.788</ele>
        <time>2019-08-29T09:25:09Z</time>
      </trkpt>
      <trkpt lat="44.2588" lon="1.97302">
        <ele>404.779</ele>
        <time>2019-08-29T09:25:13Z</time>
      </trkpt>
      <trkpt lat="44.25902" lon="1.97297">
        <ele>403.47</ele>
        <time>2019-08-29T09:25:17Z</time>
      </trkpt>
      <trkpt lat="44.25927" lon="1.97294">
        <ele>402.139</ele>
        <time>2019-08-29T09:25:21Z</time>
      </trkpt>
      <trkpt lat="44.25953" lon="1.97286">
        <ele>400.243</ele>
        <time>2019-08-29T09:25:25Z</time>
      </trkpt>
      <trkpt lat="44.25967" lon="1.97278">
        <ele>398.879</ele>
        <time>2019-08-29T09:25:28Z</time>
      </trkpt>
      <trkpt lat="44.25985" lon="1.97265">
        <ele>397.214</ele>
        <time>2019-08-29T09:25:32Z</time>
      </trkpt>
      <trkpt lat="44.26003" lon="1.97254">
        <ele>396.012</ele>
        <time>2019-08-29T09:25:35Z</time>
      </trkpt>
      <trkpt lat="44.26034" lon="1.97248">
        <ele>393.81</ele>
        <time>2019-08-29T09:25:39Z</time>
      </trkpt>
      <trkpt lat="44.26068" lon="1.9724">
        <ele>391.613</ele>
        <time>2019-08-29T09:25:43Z</time>
      </trkpt>
      <trkpt lat="44.26092" lon="1.97228">
        <ele>390.039</ele>
        <time>2019-08-29T09:25:46Z</time>
      </trkpt>
      <trkpt lat="44.26123" lon="1.97208">
        <ele>388.708</ele>
        <time>2019-08-29T09:25:50Z</time>
      </trkpt>
      <trkpt lat="44.26145" lon="1.972">
        <ele>387.448</ele>
        <time>2019-08-29T09:25:53Z</time>
      </trkpt>
      <trkpt lat="44.26183" lon="1.9721">
        <ele>385.253</ele>
        <time>2019-08-29T09:25:57Z</time>
      </trkpt>
      <trkpt lat="44.26211" lon="1.97218">
        <ele>384.231</ele>
        <time>2019-08-29T09:26:00Z</time>
      </trkpt>
      <trkpt lat="44.26246" lon="1.97226">
        <ele>382.552</ele>
        <time>2019-08-29T09:26:04Z</time>
      </trkpt>
      <trkpt lat="44.26274" lon="1.97232">
        <ele>381.157</ele>
        <time>2019-08-29T09:26:07Z</time>
      </trkpt>
      <trkpt lat="44.26303" lon="1.97227">
        <ele>379.78</ele>
        <time>2019-08-29T09:26:11Z</time>
      </trkpt>
      <trkpt lat="44.26321" lon="1.97225">
        <ele>378.069</ele>
        <time>2019-08-29T09:26:14Z</time>
      </trkpt>
      <trkpt lat="44.26334" lon="1.97224">
        <ele>376.39</ele>
        <time>2019-08-29T09:26:17Z</time>
      </trkpt>
      <trkpt lat="44.26342" lon="1.97218">
        <ele>373.72</ele>
        <time>2019-08-29T09:26:22Z</time>
      </trkpt>
      <trkpt lat="44.26346" lon="1.97233">
        <ele>370.861</ele>
        <time>2019-08-29T09:26:28Z</time>
      </trkpt>
      <trkpt lat="44.26347" lon="1.97256">
        <ele>369.056</ele>
        <time>2019-08-29T09:26:32Z</time>
      </trkpt>
      <trkpt lat="44.26347" lon="1.9727">
        <ele>367.171</ele>
        <time>2019-08-29T09:26:36Z</time>
      </trkpt>
      <trkpt lat="44.26346" lon="1.97285">
        <ele>365.305</ele>
        <time>2019-08-29T09:26:41Z</time>
      </trkpt>
      <trkpt lat="44.26346" lon="1.973">
        <ele>363.528</ele>
        <time>2019-08-29T09:26:45Z</time>
      </trkpt>
      <trkpt lat="44.26344" lon="1.97315">
        <ele>363.117</ele>
        <time>2019-08-29T09:26:51Z</time>
      </trkpt>
      <trkpt lat="44.26342" lon="1.97344">
        <ele>366.25</ele>
        <time>2019-08-29T09:29:15Z</time>
      </trkpt>
      <trkpt lat="44.26344" lon="1.97358">
        <ele>367.255</ele>
        <time>2019-08-29T09:29:24Z</time>
      </trkpt>
      <trkpt lat="44.26346" lon="1.9737">
        <ele>367.768</ele>
        <time>2019-08-29T09:29:32Z</time>
      </trkpt>
      <trkpt lat="44.26347" lon="1.97383">
        <ele>365.007</ele>
        <time>2019-08-29T09:29:38Z</time>
      </trkpt>
      <trkpt lat="44.26349" lon="1.97396">
        <ele>363.355</ele>
        <time>2019-08-29T09:29:47Z</time>
      </trkpt>
      <trkpt lat="44.26352" lon="1.9741">
        <ele>363.369</ele>
        <time>2019-08-29T09:29:53Z</time>
      </trkpt>
      <trkpt lat="44.26354" lon="1.97422">
        <ele>362.946</ele>
        <time>2019-08-29T09:29:58Z</time>
      </trkpt>
      <trkpt lat="44.26357" lon="1.97436">
        <ele>361.227</ele>
        <time>2019-08-29T09:30:03Z</time>
      </trkpt>
      <trkpt lat="44.26359" lon="1.97449">
        <ele>361.109</ele>
        <time>2019-08-29T09:30:09Z</time>
      </trkpt>
      <trkpt lat="44.26365" lon="1.97462">
        <ele>359.477</ele>
        <time>2019-08-29T09:30:15Z</time>
      </trkpt>
      <trkpt lat="44.26372" lon="1.97473">
        <ele>358.849</ele>
        <time>2019-08-29T09:30:28Z</time>
      </trkpt>
      <trkpt lat="44.26378" lon="1.97483">
        <ele>358.22</ele>
        <time>2019-08-29T09:30:32Z</time>
      </trkpt>
      <trkpt lat="44.26386" lon="1.97493">
        <ele>357.505</ele>
        <time>2019-08-29T09:30:37Z</time>
      </trkpt>
      <trkpt lat="44.26392" lon="1.97502">
        <ele>356.606</ele>
        <time>2019-08-29T09:30:41Z</time>
      </trkpt>
      <trkpt lat="44.26398" lon="1.97513">
        <ele>354.271</ele>
        <time>2019-08-29T09:30:45Z</time>
      </trkpt>
      <trkpt lat="44.26406" lon="1.97521">
        <ele>351.917</ele>
        <time>2019-08-29T09:30:50Z</time>
      </trkpt>
      <trkpt lat="44.26413" lon="1.9753">
        <ele>349.594</ele>
        <time>2019-08-29T09:30:56Z</time>
      </trkpt>
      <trkpt lat="44.2642" lon="1.97541">
        <ele>346.793</ele>
        <time>2019-08-29T09:31:03Z</time>
      </trkpt>
      <trkpt lat="44.26426" lon="1.97552">
        <ele>343.775</ele>
        <time>2019-08-29T09:31:10Z</time>
      </trkpt>
      <trkpt lat="44.26433" lon="1.97563">
        <ele>342.909</ele>
        <time>2019-08-29T09:31:17Z</time>
      </trkpt>
      <trkpt lat="44.26441" lon="1.97571">
        <ele>341.668</ele>
        <time>2019-08-29T09:31:21Z</time>
      </trkpt>
      <trkpt lat="44.26448" lon="1.97579">
        <ele>340.28</ele>
        <time>2019-08-29T09:31:26Z</time>
      </trkpt>
      <trkpt lat="44.26457" lon="1.97587">
        <ele>339.829</ele>
        <time>2019-08-29T09:31:34Z</time>
      </trkpt>
      <trkpt lat="44.26467" lon="1.97592">
        <ele>338.74</ele>
        <time>2019-08-29T09:31:40Z</time>
      </trkpt>
      <trkpt lat="44.26478" lon="1.97598">
        <ele>338.259</ele>
        <time>2019-08-29T09:31:44Z</time>
      </trkpt>
      <trkpt lat="44.26488" lon="1.97603">
        <ele>337.901</ele>
        <time>2019-08-29T09:31:47Z</time>
      </trkpt>
      <trkpt lat="44.26498" lon="1.97607">
        <ele>337.017</ele>
        <time>2019-08-29T09:31:50Z</time>
      </trkpt>
      <trkpt lat="44.26512" lon="1.97614">
        <ele>335.924</ele>
        <time>2019-08-29T09:31:54Z</time>
      </trkpt>
      <trkpt lat="44.26523" lon="1.97614">
        <ele>335.44</ele>
        <time>2019-08-29T09:31:57Z</time>
      </trkpt>
      <trkpt lat="44.26533" lon="1.97614">
        <ele>335.15</ele>
        <time>2019-08-29T09:32:00Z</time>
      </trkpt>
      <trkpt lat="44.26547" lon="1.97611">
        <ele>335.732</ele>
        <time>2019-08-29T09:32:04Z</time>
      </trkpt>
      <trkpt lat="44.26575" lon="1.97587">
        <ele>335.512</ele>
        <time>2019-08-29T09:32:14Z</time>
      </trkpt>
      <trkpt lat="44.26584" lon="1.9758">
        <ele>335.748</ele>
        <time>2019-08-29T09:32:18Z</time>
      </trkpt>
      <trkpt lat="44.26593" lon="1.97572">
        <ele>335.508</ele>
        <time>2019-08-29T09:32:23Z</time>
      </trkpt>
      <trkpt lat="44.26602" lon="1.97563">
        <ele>334.12</ele>
        <time>2019-08-29T09:32:28Z</time>
      </trkpt>
      <trkpt lat="44.26611" lon="1.97552">
        <ele>335.065</ele>
        <time>2019-08-29T09:33:16Z</time>
      </trkpt>
      <trkpt lat="44.26621" lon="1.97542">
        <ele>334.236</ele>
        <time>2019-08-29T09:33:20Z</time>
      </trkpt>
      <trkpt lat="44.2663" lon="1.9753">
        <ele>333.55</ele>
        <time>2019-08-29T09:33:24Z</time>
      </trkpt>
      <trkpt lat="44.26639" lon="1.97518">
        <ele>331.895</ele>
        <time>2019-08-29T09:33:28Z</time>
      </trkpt>
      <trkpt lat="44.26645" lon="1.97507">
        <ele>331.27</ele>
        <time>2019-08-29T09:33:31Z</time>
      </trkpt>
      <trkpt lat="44.26656" lon="1.97501">
        <ele>329.809</ele>
        <time>2019-08-29T09:33:34Z</time>
      </trkpt>
      <trkpt lat="44.26671" lon="1.975">
        <ele>327.991</ele>
        <time>2019-08-29T09:33:38Z</time>
      </trkpt>
      <trkpt lat="44.26681" lon="1.97504">
        <ele>326.958</ele>
        <time>2019-08-29T09:33:42Z</time>
      </trkpt>
      <trkpt lat="44.26691" lon="1.97512">
        <ele>325.802</ele>
        <time>2019-08-29T09:33:45Z</time>
      </trkpt>
      <trkpt lat="44.267" lon="1.9752">
        <ele>324.477</ele>
        <time>2019-08-29T09:33:48Z</time>
      </trkpt>
      <trkpt lat="44.26711" lon="1.97529">
        <ele>322.747</ele>
        <time>2019-08-29T09:33:52Z</time>
      </trkpt>
      <trkpt lat="44.2672" lon="1.97538">
        <ele>321.876</ele>
        <time>2019-08-29T09:33:56Z</time>
      </trkpt>
      <trkpt lat="44.26728" lon="1.97545">
        <ele>319.133</ele>
        <time>2019-08-29T09:34:04Z</time>
      </trkpt>
      <trkpt lat="44.26734" lon="1.97555">
        <ele>318.668</ele>
        <time>2019-08-29T09:34:43Z</time>
      </trkpt>
      <trkpt lat="44.26741" lon="1.97564">
        <ele>317.101</ele>
        <time>2019-08-29T09:35:00Z</time>
      </trkpt>
      <trkpt lat="44.2675" lon="1.97558">
        <ele>316.481</ele>
        <time>2019-08-29T09:35:08Z</time>
      </trkpt>
      <trkpt lat="44.26758" lon="1.97564">
        <ele>315.093</ele>
        <time>2019-08-29T09:35:18Z</time>
      </trkpt>
      <trkpt lat="44.26769" lon="1.97566">
        <ele>314.1</ele>
        <time>2019-08-29T09:35:25Z</time>
      </trkpt>
      <trkpt lat="44.26777" lon="1.97576">
        <ele>313.263</ele>
        <time>2019-08-29T09:35:30Z</time>
      </trkpt>
      <trkpt lat="44.26784" lon="1.97587">
        <ele>311.514</ele>
        <time>2019-08-29T09:35:35Z</time>
      </trkpt>
      <trkpt lat="44.26792" lon="1.97596">
        <ele>310.189</ele>
        <time>2019-08-29T09:35:40Z</time>
      </trkpt>
      <trkpt lat="44.26796" lon="1.97609">
        <ele>309.727</ele>
        <time>2019-08-29T09:35:45Z</time>
      </trkpt>
      <trkpt lat="44.268" lon="1.97623">
        <ele>309.449</ele>
        <time>2019-08-29T09:35:50Z</time>
      </trkpt>
      <trkpt lat="44.26801" lon="1.9768">
        <ele>304.27</ele>
        <time>2019-08-29T09:36:17Z</time>
      </trkpt>
      <trkpt lat="44.26798" lon="1.97693">
        <ele>303.635</ele>
        <time>2019-08-29T09:36:23Z</time>
      </trkpt>
      <trkpt lat="44.26797" lon="1.97707">
        <ele>301.855</ele>
        <time>2019-08-29T09:36:28Z</time>
      </trkpt>
      <trkpt lat="44.26797" lon="1.97722">
        <ele>301.44</ele>
        <time>2019-08-29T09:36:33Z</time>
      </trkpt>
      <trkpt lat="44.26798" lon="1.97736">
        <ele>301.421</ele>
        <time>2019-08-29T09:36:37Z</time>
      </trkpt>
      <trkpt lat="44.26798" lon="1.97748">
        <ele>301.766</ele>
        <time>2019-08-29T09:36:40Z</time>
      </trkpt>
      <trkpt lat="44.26796" lon="1.97763">
        <ele>300.993</ele>
        <time>2019-08-29T09:36:44Z</time>
      </trkpt>
      <trkpt lat="44.26793" lon="1.97776">
        <ele>300.518</ele>
        <time>2019-08-29T09:36:48Z</time>
      </trkpt>
      <trkpt lat="44.2679" lon="1.97788">
        <ele>299.989</ele>
        <time>2019-08-29T09:36:52Z</time>
      </trkpt>
      <trkpt lat="44.2679" lon="1.97801">
        <ele>299.374</ele>
        <time>2019-08-29T09:36:58Z</time>
      </trkpt>
      <trkpt lat="44.2679" lon="1.97817">
        <ele>299.014</ele>
        <time>2019-08-29T09:37:13Z</time>
      </trkpt>
      <trkpt lat="44.26791" lon="1.97831">
        <ele>299.364</ele>
        <time>2019-08-29T09:37:18Z</time>
      </trkpt>
      <trkpt lat="44.26791" lon="1.97844">
        <ele>299.8</ele>
        <time>2019-08-29T09:37:23Z</time>
      </trkpt>
      <trkpt lat="44.2679" lon="1.97857">
        <ele>297.673</ele>
        <time>2019-08-29T09:37:27Z</time>
      </trkpt>
      <trkpt lat="44.26795" lon="1.97868">
        <ele>296.157</ele>
        <time>2019-08-29T09:37:31Z</time>
      </trkpt>
      <trkpt lat="44.26801" lon="1.97885">
        <ele>294.992</ele>
        <time>2019-08-29T09:37:34Z</time>
      </trkpt>
      <trkpt lat="44.26811" lon="1.97883">
        <ele>293.16</ele>
        <time>2019-08-29T09:37:40Z</time>
      </trkpt>
      <trkpt lat="44.26818" lon="1.97874">
        <ele>290.874</ele>
        <time>2019-08-29T09:37:45Z</time>
      </trkpt>
      <trkpt lat="44.26825" lon="1.97864">
        <ele>289.238</ele>
        <time>2019-08-29T09:37:51Z</time>
      </trkpt>
      <trkpt lat="44.26831" lon="1.97851">
        <ele>286.739</ele>
        <time>2019-08-29T09:37:56Z</time>
      </trkpt>
      <trkpt lat="44.26835" lon="1.9784">
        <ele>285.466</ele>
        <time>2019-08-29T09:37:59Z</time>
      </trkpt>
      <trkpt lat="44.2684" lon="1.97829">
        <ele>284.364</ele>
        <time>2019-08-29T09:38:03Z</time>
      </trkpt>
      <trkpt lat="44.26846" lon="1.9782">
        <ele>284.319</ele>
        <time>2019-08-29T09:38:07Z</time>
      </trkpt>
      <trkpt lat="44.26853" lon="1.97802">
        <ele>283.535</ele>
        <time>2019-08-29T09:38:12Z</time>
      </trkpt>
      <trkpt lat="44.26865" lon="1.9785">
        <ele>279.289</ele>
        <time>2019-08-29T09:38:30Z</time>
      </trkpt>
      <trkpt lat="44.26867" lon="1.97904">
        <ele>276.969</ele>
        <time>2019-08-29T09:38:43Z</time>
      </trkpt>
      <trkpt lat="44.26913" lon="1.97782">
        <ele>251.478</ele>
        <time>2019-08-29T09:39:45Z</time>
      </trkpt>
      <trkpt lat="44.26905" lon="1.97734">
        <ele>251.263</ele>
        <time>2019-08-29T09:39:49Z</time>
      </trkpt>
      <trkpt lat="44.26906" lon="1.97634">
        <ele>250.173</ele>
        <time>2019-08-29T09:39:57Z</time>
      </trkpt>
      <trkpt lat="44.26909" lon="1.97587">
        <ele>250.962</ele>
        <time>2019-08-29T09:40:01Z</time>
      </trkpt>
      <trkpt lat="44.26912" lon="1.97539">
        <ele>250.465</ele>
        <time>2019-08-29T09:40:05Z</time>
      </trkpt>
      <trkpt lat="44.26918" lon="1.97492">
        <ele>251.116</ele>
        <time>2019-08-29T09:40:09Z</time>
      </trkpt>
      <trkpt lat="44.26939" lon="1.97451">
        <ele>252.601</ele>
        <time>2019-08-29T09:40:13Z</time>
      </trkpt>
      <trkpt lat="44.26967" lon="1.97419">
        <ele>253.222</ele>
        <time>2019-08-29T09:40:17Z</time>
      </trkpt>
      <trkpt lat="44.27064" lon="1.97296">
        <ele>253.353</ele>
        <time>2019-08-29T09:40:32Z</time>
      </trkpt>
      <trkpt lat="44.27213" lon="1.97141">
        <ele>258.991</ele>
        <time>2019-08-29T09:40:53Z</time>
      </trkpt>
      <trkpt lat="44.27244" lon="1.97116">
        <ele>260.274</ele>
        <time>2019-08-29T09:40:57Z</time>
      </trkpt>
      <trkpt lat="44.27265" lon="1.97089">
        <ele>261.997</ele>
        <time>2019-08-29T09:41:00Z</time>
      </trkpt>
      <trkpt lat="44.27282" lon="1.97059">
        <ele>262.621</ele>
        <time>2019-08-29T09:41:03Z</time>
      </trkpt>
      <trkpt lat="44.27303" lon="1.97023">
        <ele>262.452</ele>
        <time>2019-08-29T09:41:07Z</time>
      </trkpt>
      <trkpt lat="44.27312" lon="1.97013">
        <ele>262.636</ele>
        <time>2019-08-29T09:41:10Z</time>
      </trkpt>
      <trkpt lat="44.2731" lon="1.97028">
        <ele>262.125</ele>
        <time>2019-08-29T09:41:14Z</time>
      </trkpt>
      <trkpt lat="44.27299" lon="1.97063">
        <ele>261.322</ele>
        <time>2019-08-29T09:41:18Z</time>
      </trkpt>
      <trkpt lat="44.27296" lon="1.97078">
        <ele>261.327</ele>
        <time>2019-08-29T09:41:21Z</time>
      </trkpt>
      <trkpt lat="44.27305" lon="1.97083">
        <ele>261.193</ele>
        <time>2019-08-29T09:41:27Z</time>
      </trkpt>
      <trkpt lat="44.27302" lon="1.97096">
        <ele>261.699</ele>
        <time>2019-08-29T09:41:31Z</time>
      </trkpt>
      <trkpt lat="44.27298" lon="1.97109">
        <ele>262.649</ele>
        <time>2019-08-29T09:41:37Z</time>
      </trkpt>
      <trkpt lat="44.27296" lon="1.97126">
        <ele>262.508</ele>
        <time>2019-08-29T09:41:42Z</time>
      </trkpt>
      <trkpt lat="44.27292" lon="1.97144">
        <ele>261.896</ele>
        <time>2019-08-29T09:41:46Z</time>
      </trkpt>
      <trkpt lat="44.27292" lon="1.97158">
        <ele>261.425</ele>
        <time>2019-08-29T09:41:51Z</time>
      </trkpt>
      <trkpt lat="44.27288" lon="1.97172">
        <ele>260.347</ele>
        <time>2019-08-29T09:41:56Z</time>
      </trkpt>
      <trkpt lat="44.27279" lon="1.9718">
        <ele>259.633</ele>
        <time>2019-08-29T09:42:01Z</time>
      </trkpt>
      <trkpt lat="44.27273" lon="1.97191">
        <ele>259.941</ele>
        <time>2019-08-29T09:42:06Z</time>
      </trkpt>
      <trkpt lat="44.27266" lon="1.972">
        <ele>260.183</ele>
        <time>2019-08-29T09:42:10Z</time>
      </trkpt>
      <trkpt lat="44.27256" lon="1.97209">
        <ele>260.115</ele>
        <time>2019-08-29T09:42:15Z</time>
      </trkpt>
      <trkpt lat="44.27249" lon="1.97225">
        <ele>260.515</ele>
        <time>2019-08-29T09:42:20Z</time>
      </trkpt>
      <trkpt lat="44.2724" lon="1.97238">
        <ele>261.369</ele>
        <time>2019-08-29T09:42:24Z</time>
      </trkpt>
      <trkpt lat="44.2723" lon="1.97258">
        <ele>262.549</ele>
        <time>2019-08-29T09:42:30Z</time>
      </trkpt>
      <trkpt lat="44.27215" lon="1.97276">
        <ele>262.108</ele>
        <time>2019-08-29T09:42:35Z</time>
      </trkpt>
      <trkpt lat="44.27183" lon="1.97313">
        <ele>263.324</ele>
        <time>2019-08-29T09:42:46Z</time>
      </trkpt>
      <trkpt lat="44.27169" lon="1.97327">
        <ele>264.192</ele>
        <time>2019-08-29T09:42:50Z</time>
      </trkpt>
      <trkpt lat="44.27157" lon="1.97336">
        <ele>264.452</ele>
        <time>2019-08-29T09:42:53Z</time>
      </trkpt>
      <trkpt lat="44.27137" lon="1.97356">
        <ele>263.021</ele>
        <time>2019-08-29T09:43:00Z</time>
      </trkpt>
      <trkpt lat="44.27126" lon="1.97371">
        <ele>260.844</ele>
        <time>2019-08-29T09:43:04Z</time>
      </trkpt>
      <trkpt lat="44.27118" lon="1.97381">
        <ele>260.051</ele>
        <time>2019-08-29T09:43:07Z</time>
      </trkpt>
      <trkpt lat="44.27108" lon="1.97395">
        <ele>261.122</ele>
        <time>2019-08-29T09:43:11Z</time>
      </trkpt>
      <trkpt lat="44.27102" lon="1.97404">
        <ele>261.611</ele>
        <time>2019-08-29T09:43:14Z</time>
      </trkpt>
      <trkpt lat="44.27092" lon="1.97417">
        <ele>261.575</ele>
        <time>2019-08-29T09:43:18Z</time>
      </trkpt>
      <trkpt lat="44.27085" lon="1.97429">
        <ele>262.224</ele>
        <time>2019-08-29T09:43:22Z</time>
      </trkpt>
      <trkpt lat="44.2705" lon="1.97475">
        <ele>260.643</ele>
        <time>2019-08-29T09:43:34Z</time>
      </trkpt>
      <trkpt lat="44.27041" lon="1.97485">
        <ele>260.269</ele>
        <time>2019-08-29T09:43:37Z</time>
      </trkpt>
      <trkpt lat="44.27035" lon="1.97497">
        <ele>259.944</ele>
        <time>2019-08-29T09:43:40Z</time>
      </trkpt>
      <trkpt lat="44.27028" lon="1.97518">
        <ele>259.284</ele>
        <time>2019-08-29T09:43:44Z</time>
      </trkpt>
      <trkpt lat="44.27026" lon="1.97539">
        <ele>257.987</ele>
        <time>2019-08-29T09:43:48Z</time>
      </trkpt>
      <trkpt lat="44.27025" lon="1.97558">
        <ele>255.613</ele>
        <time>2019-08-29T09:43:52Z</time>
      </trkpt>
      <trkpt lat="44.27025" lon="1.97573">
        <ele>253.965</ele>
        <time>2019-08-29T09:43:55Z</time>
      </trkpt>
      <trkpt lat="44.27025" lon="1.97591">
        <ele>252.298</ele>
        <time>2019-08-29T09:43:59Z</time>
      </trkpt>
      <trkpt lat="44.27026" lon="1.97608">
        <ele>251.963</ele>
        <time>2019-08-29T09:44:03Z</time>
      </trkpt>
      <trkpt lat="44.2703" lon="1.97623">
        <ele>252.709</ele>
        <time>2019-08-29T09:44:39Z</time>
      </trkpt>
      <trkpt lat="44.27032" lon="1.97636">
        <ele>252.389</ele>
        <time>2019-08-29T09:44:42Z</time>
      </trkpt>
      <trkpt lat="44.27031" lon="1.97649">
        <ele>251.56</ele>
        <time>2019-08-29T09:44:46Z</time>
      </trkpt>
      <trkpt lat="44.27034" lon="1.97662">
        <ele>252.852</ele>
        <time>2019-08-29T09:44:51Z</time>
      </trkpt>
      <trkpt lat="44.27041" lon="1.97653">
        <ele>254.992</ele>
        <time>2019-08-29T09:44:57Z</time>
      </trkpt>
      <trkpt lat="44.27043" lon="1.97637">
        <ele>256.857</ele>
        <time>2019-08-29T09:45:02Z</time>
      </trkpt>
      <trkpt lat="44.27042" lon="1.97623">
        <ele>257.572</ele>
        <time>2019-08-29T09:45:06Z</time>
      </trkpt>
      <trkpt lat="44.27042" lon="1.97599">
        <ele>260.681</ele>
        <time>2019-08-29T09:45:13Z</time>
      </trkpt>
      <trkpt lat="44.27045" lon="1.97586">
        <ele>261.833</ele>
        <time>2019-08-29T09:45:42Z</time>
      </trkpt>
      <trkpt lat="44.27048" lon="1.97573">
        <ele>262.604</ele>
        <time>2019-08-29T09:45:46Z</time>
      </trkpt>
      <trkpt lat="44.27051" lon="1.9756">
        <ele>262.565</ele>
        <time>2019-08-29T09:45:50Z</time>
      </trkpt>
      <trkpt lat="44.27054" lon="1.97546">
        <ele>263.205</ele>
        <time>2019-08-29T09:45:55Z</time>
      </trkpt>
      <trkpt lat="44.27059" lon="1.97535">
        <ele>264.614</ele>
        <time>2019-08-29T09:45:59Z</time>
      </trkpt>
      <trkpt lat="44.27065" lon="1.97521">
        <ele>264.628</ele>
        <time>2019-08-29T09:46:03Z</time>
      </trkpt>
      <trkpt lat="44.27072" lon="1.9751">
        <ele>264.256</ele>
        <time>2019-08-29T09:46:08Z</time>
      </trkpt>
      <trkpt lat="44.27079" lon="1.975">
        <ele>265.269</ele>
        <time>2019-08-29T09:46:12Z</time>
      </trkpt>
      <trkpt lat="44.27087" lon="1.9749">
        <ele>264.97</ele>
        <time>2019-08-29T09:46:16Z</time>
      </trkpt>
      <trkpt lat="44.27094" lon="1.97478">
        <ele>265.724</ele>
        <time>2019-08-29T09:46:30Z</time>
      </trkpt>
      <trkpt lat="44.27101" lon="1.97469">
        <ele>266.422</ele>
        <time>2019-08-29T09:46:34Z</time>
      </trkpt>
      <trkpt lat="44.27109" lon="1.97461">
        <ele>266.829</ele>
        <time>2019-08-29T09:46:38Z</time>
      </trkpt>
      <trkpt lat="44.27117" lon="1.97454">
        <ele>267.692</ele>
        <time>2019-08-29T09:46:42Z</time>
      </trkpt>
      <trkpt lat="44.27126" lon="1.97445">
        <ele>269.142</ele>
        <time>2019-08-29T09:46:47Z</time>
      </trkpt>
      <trkpt lat="44.27136" lon="1.97438">
        <ele>269.534</ele>
        <time>2019-08-29T09:46:52Z</time>
      </trkpt>
      <trkpt lat="44.27146" lon="1.97432">
        <ele>269.92</ele>
        <time>2019-08-29T09:46:56Z</time>
      </trkpt>
      <trkpt lat="44.27157" lon="1.97424">
        <ele>270.731</ele>
        <time>2019-08-29T09:47:00Z</time>
      </trkpt>
      <trkpt lat="44.27166" lon="1.97418">
        <ele>271.419</ele>
        <time>2019-08-29T09:47:03Z</time>
      </trkpt>
      <trkpt lat="44.27177" lon="1.97412">
        <ele>272.392</ele>
        <time>2019-08-29T09:47:07Z</time>
      </trkpt>
      <trkpt lat="44.27189" lon="1.97409">
        <ele>273.954</ele>
        <time>2019-08-29T09:47:11Z</time>
      </trkpt>
      <trkpt lat="44.27199" lon="1.97403">
        <ele>275.226</ele>
        <time>2019-08-29T09:47:44Z</time>
      </trkpt>
      <trkpt lat="44.27209" lon="1.97395">
        <ele>275.926</ele>
        <time>2019-08-29T09:47:48Z</time>
      </trkpt>
      <trkpt lat="44.2722" lon="1.97387">
        <ele>277.224</ele>
        <time>2019-08-29T09:47:52Z</time>
      </trkpt>
      <trkpt lat="44.27242" lon="1.97372">
        <ele>280.985</ele>
        <time>2019-08-29T09:48:02Z</time>
      </trkpt>
      <trkpt lat="44.27251" lon="1.97366">
        <ele>281.951</ele>
        <time>2019-08-29T09:48:05Z</time>
      </trkpt>
      <trkpt lat="44.27262" lon="1.97358">
        <ele>284.969</ele>
        <time>2019-08-29T09:48:08Z</time>
      </trkpt>
      <trkpt lat="44.27272" lon="1.97347">
        <ele>288.668</ele>
        <time>2019-08-29T09:48:12Z</time>
      </trkpt>
      <trkpt lat="44.27283" lon="1.97336">
        <ele>289.214</ele>
        <time>2019-08-29T09:48:16Z</time>
      </trkpt>
      <trkpt lat="44.27293" lon="1.97329">
        <ele>290.559</ele>
        <time>2019-08-29T09:48:20Z</time>
      </trkpt>
      <trkpt lat="44.27304" lon="1.97322">
        <ele>290.232</ele>
        <time>2019-08-29T09:48:24Z</time>
      </trkpt>
      <trkpt lat="44.27315" lon="1.97315">
        <ele>290.786</ele>
        <time>2019-08-29T09:48:28Z</time>
      </trkpt>
      <trkpt lat="44.27327" lon="1.97311">
        <ele>290.688</ele>
        <time>2019-08-29T09:48:31Z</time>
      </trkpt>
      <trkpt lat="44.27333" lon="1.97321">
        <ele>291.194</ele>
        <time>2019-08-29T09:48:35Z</time>
      </trkpt>
      <trkpt lat="44.27326" lon="1.97329">
        <ele>292.524</ele>
        <time>2019-08-29T09:48:40Z</time>
      </trkpt>
      <trkpt lat="44.27322" lon="1.97341">
        <ele>294.526</ele>
        <time>2019-08-29T09:48:45Z</time>
      </trkpt>
      <trkpt lat="44.27316" lon="1.97354">
        <ele>295.821</ele>
        <time>2019-08-29T09:48:50Z</time>
      </trkpt>
      <trkpt lat="44.27313" lon="1.97366">
        <ele>296.63</ele>
        <time>2019-08-29T09:48:54Z</time>
      </trkpt>
      <trkpt lat="44.27311" lon="1.97378">
        <ele>299.103</ele>
        <time>2019-08-29T09:48:58Z</time>
      </trkpt>
      <trkpt lat="44.27308" lon="1.97393">
        <ele>301.065</ele>
        <time>2019-08-29T09:49:03Z</time>
      </trkpt>
      <trkpt lat="44.27305" lon="1.97409">
        <ele>302.317</ele>
        <time>2019-08-29T09:49:08Z</time>
      </trkpt>
      <trkpt lat="44.273" lon="1.97421">
        <ele>303.085</ele>
        <time>2019-08-29T09:49:12Z</time>
      </trkpt>
      <trkpt lat="44.27294" lon="1.97431">
        <ele>306.031</ele>
        <time>2019-08-29T09:49:17Z</time>
      </trkpt>
      <trkpt lat="44.27287" lon="1.9744">
        <ele>307.152</ele>
        <time>2019-08-29T09:49:21Z</time>
      </trkpt>
      <trkpt lat="44.2728" lon="1.9745">
        <ele>307.196</ele>
        <time>2019-08-29T09:49:25Z</time>
      </trkpt>
      <trkpt lat="44.27272" lon="1.9746">
        <ele>307.802</ele>
        <time>2019-08-29T09:49:29Z</time>
      </trkpt>
      <trkpt lat="44.27264" lon="1.97469">
        <ele>308.241</ele>
        <time>2019-08-29T09:49:33Z</time>
      </trkpt>
      <trkpt lat="44.27256" lon="1.97481">
        <ele>307.307</ele>
        <time>2019-08-29T09:49:37Z</time>
      </trkpt>
      <trkpt lat="44.2725" lon="1.97491">
        <ele>307.218</ele>
        <time>2019-08-29T09:49:41Z</time>
      </trkpt>
      <trkpt lat="44.27258" lon="1.97478">
        <ele>306.537</ele>
        <time>2019-08-29T09:49:49Z</time>
      </trkpt>
      <trkpt lat="44.27273" lon="1.9746">
        <ele>305.985</ele>
        <time>2019-08-29T09:49:53Z</time>
      </trkpt>
      <trkpt lat="44.27284" lon="1.97447">
        <ele>305.05</ele>
        <time>2019-08-29T09:49:57Z</time>
      </trkpt>
      <trkpt lat="44.27292" lon="1.97437">
        <ele>303.757</ele>
        <time>2019-08-29T09:50:02Z</time>
      </trkpt>
      <trkpt lat="44.27298" lon="1.97424">
        <ele>302.741</ele>
        <time>2019-08-29T09:50:05Z</time>
      </trkpt>
      <trkpt lat="44.27303" lon="1.97402">
        <ele>301.569</ele>
        <time>2019-08-29T09:50:09Z</time>
      </trkpt>
      <trkpt lat="44.27309" lon="1.97376">
        <ele>300.556</ele>
        <time>2019-08-29T09:50:13Z</time>
      </trkpt>
      <trkpt lat="44.27313" lon="1.97359">
        <ele>298.887</ele>
        <time>2019-08-29T09:50:16Z</time>
      </trkpt>
      <trkpt lat="44.2732" lon="1.97344">
        <ele>297.051</ele>
        <time>2019-08-29T09:50:19Z</time>
      </trkpt>
      <trkpt lat="44.27329" lon="1.97328">
        <ele>294.687</ele>
        <time>2019-08-29T09:50:23Z</time>
      </trkpt>
      <trkpt lat="44.27336" lon="1.97315">
        <ele>292.43</ele>
        <time>2019-08-29T09:50:27Z</time>
      </trkpt>
      <trkpt lat="44.27326" lon="1.97311">
        <ele>291.058</ele>
        <time>2019-08-29T09:50:31Z</time>
      </trkpt>
      <trkpt lat="44.2731" lon="1.97317">
        <ele>289.575</ele>
        <time>2019-08-29T09:50:35Z</time>
      </trkpt>
      <trkpt lat="44.27296" lon="1.97325">
        <ele>287.597</ele>
        <time>2019-08-29T09:50:39Z</time>
      </trkpt>
      <trkpt lat="44.27273" lon="1.97349">
        <ele>284.012</ele>
        <time>2019-08-29T09:50:46Z</time>
      </trkpt>
      <trkpt lat="44.27261" lon="1.97359">
        <ele>282.725</ele>
        <time>2019-08-29T09:50:49Z</time>
      </trkpt>
      <trkpt lat="44.27247" lon="1.97367">
        <ele>281.465</ele>
        <time>2019-08-29T09:50:53Z</time>
      </trkpt>
      <trkpt lat="44.27237" lon="1.97373">
        <ele>280.296</ele>
        <time>2019-08-29T09:50:56Z</time>
      </trkpt>
      <trkpt lat="44.27223" lon="1.97383">
        <ele>278.221</ele>
        <time>2019-08-29T09:51:00Z</time>
      </trkpt>
      <trkpt lat="44.27215" lon="1.97391">
        <ele>277.75</ele>
        <time>2019-08-29T09:51:03Z</time>
      </trkpt>
      <trkpt lat="44.27202" lon="1.97399">
        <ele>276.932</ele>
        <time>2019-08-29T09:51:07Z</time>
      </trkpt>
      <trkpt lat="44.27184" lon="1.97407">
        <ele>274.389</ele>
        <time>2019-08-29T09:51:11Z</time>
      </trkpt>
      <trkpt lat="44.2717" lon="1.97417">
        <ele>272.836</ele>
        <time>2019-08-29T09:51:15Z</time>
      </trkpt>
      <trkpt lat="44.27131" lon="1.97442">
        <ele>269.306</ele>
        <time>2019-08-29T09:51:32Z</time>
      </trkpt>
      <trkpt lat="44.27121" lon="1.97449">
        <ele>267.987</ele>
        <time>2019-08-29T09:51:36Z</time>
      </trkpt>
      <trkpt lat="44.27111" lon="1.97457">
        <ele>266.777</ele>
        <time>2019-08-29T09:51:39Z</time>
      </trkpt>
      <trkpt lat="44.27102" lon="1.97468">
        <ele>265.517</ele>
        <time>2019-08-29T09:51:43Z</time>
      </trkpt>
      <trkpt lat="44.27094" lon="1.97476">
        <ele>265.265</ele>
        <time>2019-08-29T09:51:46Z</time>
      </trkpt>
      <trkpt lat="44.27085" lon="1.97489">
        <ele>264.171</ele>
        <time>2019-08-29T09:51:50Z</time>
      </trkpt>
      <trkpt lat="44.27075" lon="1.97501">
        <ele>263.929</ele>
        <time>2019-08-29T09:51:54Z</time>
      </trkpt>
      <trkpt lat="44.27065" lon="1.97518">
        <ele>263.558</ele>
        <time>2019-08-29T09:51:58Z</time>
      </trkpt>
      <trkpt lat="44.27058" lon="1.9753">
        <ele>263.302</ele>
        <time>2019-08-29T09:52:01Z</time>
      </trkpt>
      <trkpt lat="44.27051" lon="1.97545">
        <ele>262.811</ele>
        <time>2019-08-29T09:52:04Z</time>
      </trkpt>
      <trkpt lat="44.27046" lon="1.9756">
        <ele>261.522</ele>
        <time>2019-08-29T09:52:07Z</time>
      </trkpt>
      <trkpt lat="44.27042" lon="1.97581">
        <ele>261.067</ele>
        <time>2019-08-29T09:52:11Z</time>
      </trkpt>
      <trkpt lat="44.27041" lon="1.97601">
        <ele>261.367</ele>
        <time>2019-08-29T09:52:15Z</time>
      </trkpt>
      <trkpt lat="44.27041" lon="1.97616">
        <ele>260.905</ele>
        <time>2019-08-29T09:52:18Z</time>
      </trkpt>
      <trkpt lat="44.27042" lon="1.97635">
        <ele>259.734</ele>
        <time>2019-08-29T09:52:22Z</time>
      </trkpt>
      <trkpt lat="44.27037" lon="1.97649">
        <ele>258.649</ele>
        <time>2019-08-29T09:52:43Z</time>
      </trkpt>
      <trkpt lat="44.2703" lon="1.97663">
        <ele>257.609</ele>
        <time>2019-08-29T09:52:48Z</time>
      </trkpt>
      <trkpt lat="44.27025" lon="1.97678">
        <ele>257.035</ele>
        <time>2019-08-29T09:52:52Z</time>
      </trkpt>
      <trkpt lat="44.27021" lon="1.97697">
        <ele>256.588</ele>
        <time>2019-08-29T09:52:55Z</time>
      </trkpt>
      <trkpt lat="44.27016" lon="1.97719">
        <ele>255.479</ele>
        <time>2019-08-29T09:52:58Z</time>
      </trkpt>
      <trkpt lat="44.27015" lon="1.97748">
        <ele>252.815</ele>
        <time>2019-08-29T09:53:02Z</time>
      </trkpt>
      <trkpt lat="44.2702" lon="1.97775">
        <ele>250.325</ele>
        <time>2019-08-29T09:53:06Z</time>
      </trkpt>
      <trkpt lat="44.27022" lon="1.97799">
        <ele>248.981</ele>
        <time>2019-08-29T09:53:10Z</time>
      </trkpt>
      <trkpt lat="44.27024" lon="1.97814">
        <ele>248.527</ele>
        <time>2019-08-29T09:53:13Z</time>
      </trkpt>
      <trkpt lat="44.27027" lon="1.97838">
        <ele>248.699</ele>
        <time>2019-08-29T09:53:18Z</time>
      </trkpt>
      <trkpt lat="44.27028" lon="1.97853">
        <ele>249.345</ele>
        <time>2019-08-29T09:53:21Z</time>
      </trkpt>
      <trkpt lat="44.27029" lon="1.97868">
        <ele>250.326</ele>
        <time>2019-08-29T09:53:24Z</time>
      </trkpt>
      <trkpt lat="44.27029" lon="1.97888">
        <ele>251.606</ele>
        <time>2019-08-29T09:53:28Z</time>
      </trkpt>
      <trkpt lat="44.27029" lon="1.97909">
        <ele>252.896</ele>
        <time>2019-08-29T09:53:32Z</time>
      </trkpt>
      <trkpt lat="44.27029" lon="1.97923">
        <ele>254.031</ele>
        <time>2019-08-29T09:53:35Z</time>
      </trkpt>
      <trkpt lat="44.27029" lon="1.97942">
        <ele>255.582</ele>
        <time>2019-08-29T09:53:39Z</time>
      </trkpt>
      <trkpt lat="44.2703" lon="1.9796">
        <ele>256.41</ele>
        <time>2019-08-29T09:53:43Z</time>
      </trkpt>
      <trkpt lat="44.2703" lon="1.97977">
        <ele>257.376</ele>
        <time>2019-08-29T09:57:40Z</time>
      </trkpt>
      <trkpt lat="44.27029" lon="1.97999">
        <ele>257.465</ele>
        <time>2019-08-29T09:57:44Z</time>
      </trkpt>
      <trkpt lat="44.27028" lon="1.98019">
        <ele>258.289</ele>
        <time>2019-08-29T09:57:48Z</time>
      </trkpt>
      <trkpt lat="44.27027" lon="1.98036">
        <ele>260.337</ele>
        <time>2019-08-29T09:57:52Z</time>
      </trkpt>
      <trkpt lat="44.27026" lon="1.9805">
        <ele>260.624</ele>
        <time>2019-08-29T09:57:55Z</time>
      </trkpt>
      <trkpt lat="44.27023" lon="1.98063">
        <ele>261.174</ele>
        <time>2019-08-29T09:57:58Z</time>
      </trkpt>
      <trkpt lat="44.27023" lon="1.98079">
        <ele>261.671</ele>
        <time>2019-08-29T09:58:02Z</time>
      </trkpt>
      <trkpt lat="44.27021" lon="1.98093">
        <ele>262.455</ele>
        <time>2019-08-29T09:58:05Z</time>
      </trkpt>
      <trkpt lat="44.27019" lon="1.98115">
        <ele>263.782</ele>
        <time>2019-08-29T09:58:09Z</time>
      </trkpt>
      <trkpt lat="44.27017" lon="1.98141">
        <ele>264.509</ele>
        <time>2019-08-29T09:58:13Z</time>
      </trkpt>
      <trkpt lat="44.27015" lon="1.98163">
        <ele>265.075</ele>
        <time>2019-08-29T09:58:17Z</time>
      </trkpt>
      <trkpt lat="44.27011" lon="1.98181">
        <ele>266.785</ele>
        <time>2019-08-29T09:58:21Z</time>
      </trkpt>
      <trkpt lat="44.27004" lon="1.98192">
        <ele>267.44</ele>
        <time>2019-08-29T09:58:25Z</time>
      </trkpt>
      <trkpt lat="44.26998" lon="1.98204">
        <ele>267.89</ele>
        <time>2019-08-29T09:58:29Z</time>
      </trkpt>
      <trkpt lat="44.26992" lon="1.98218">
        <ele>267.352</ele>
        <time>2019-08-29T09:58:33Z</time>
      </trkpt>
      <trkpt lat="44.26985" lon="1.98234">
        <ele>266.539</ele>
        <time>2019-08-29T09:58:37Z</time>
      </trkpt>
      <trkpt lat="44.2698" lon="1.98248">
        <ele>265.319</ele>
        <time>2019-08-29T09:58:40Z</time>
      </trkpt>
      <trkpt lat="44.26973" lon="1.98274">
        <ele>263.793</ele>
        <time>2019-08-29T09:58:44Z</time>
      </trkpt>
      <trkpt lat="44.26964" lon="1.98306">
        <ele>261.894</ele>
        <time>2019-08-29T09:58:48Z</time>
      </trkpt>
      <trkpt lat="44.26953" lon="1.98339">
        <ele>260.895</ele>
        <time>2019-08-29T09:58:52Z</time>
      </trkpt>
      <trkpt lat="44.26938" lon="1.98371">
        <ele>260.999</ele>
        <time>2019-08-29T09:58:56Z</time>
      </trkpt>
      <trkpt lat="44.26932" lon="1.98397">
        <ele>261.394</ele>
        <time>2019-08-29T09:58:59Z</time>
      </trkpt>
      <trkpt lat="44.2693" lon="1.98424">
        <ele>260.705</ele>
        <time>2019-08-29T09:59:03Z</time>
      </trkpt>
      <trkpt lat="44.26927" lon="1.98445">
        <ele>260.587</ele>
        <time>2019-08-29T09:59:07Z</time>
      </trkpt>
      <trkpt lat="44.26926" lon="1.98459">
        <ele>259.415</ele>
        <time>2019-08-29T09:59:10Z</time>
      </trkpt>
      <trkpt lat="44.26925" lon="1.98472">
        <ele>258.625</ele>
        <time>2019-08-29T09:59:13Z</time>
      </trkpt>
      <trkpt lat="44.26927" lon="1.98494">
        <ele>256.287</ele>
        <time>2019-08-29T09:59:17Z</time>
      </trkpt>
      <trkpt lat="44.26929" lon="1.98516">
        <ele>252.761</ele>
        <time>2019-08-29T09:59:21Z</time>
      </trkpt>
      <trkpt lat="44.2693" lon="1.98532">
        <ele>249.699</ele>
        <time>2019-08-29T09:59:24Z</time>
      </trkpt>
      <trkpt lat="44.2693" lon="1.9855">
        <ele>247.332</ele>
        <time>2019-08-29T09:59:28Z</time>
      </trkpt>
      <trkpt lat="44.2693" lon="1.98564">
        <ele>246.726</ele>
        <time>2019-08-29T09:59:32Z</time>
      </trkpt>
      <trkpt lat="44.26928" lon="1.98579">
        <ele>247.191</ele>
        <time>2019-08-29T09:59:36Z</time>
      </trkpt>
      <trkpt lat="44.2694" lon="1.98581">
        <ele>247.595</ele>
        <time>2019-08-29T10:00:34Z</time>
      </trkpt>
      <trkpt lat="44.26951" lon="1.9858">
        <ele>246.372</ele>
        <time>2019-08-29T10:00:37Z</time>
      </trkpt>
      <trkpt lat="44.26966" lon="1.98581">
        <ele>245.447</ele>
        <time>2019-08-29T10:00:41Z</time>
      </trkpt>
      <trkpt lat="44.26977" lon="1.9858">
        <ele>245.08</ele>
        <time>2019-08-29T10:00:45Z</time>
      </trkpt>
      <trkpt lat="44.26989" lon="1.98579">
        <ele>245.751</ele>
        <time>2019-08-29T10:00:49Z</time>
      </trkpt>
      <trkpt lat="44.27002" lon="1.98581">
        <ele>247.589</ele>
        <time>2019-08-29T10:00:53Z</time>
      </trkpt>
      <trkpt lat="44.27013" lon="1.9859">
        <ele>248.686</ele>
        <time>2019-08-29T10:00:57Z</time>
      </trkpt>
      <trkpt lat="44.27024" lon="1.98595">
        <ele>249.235</ele>
        <time>2019-08-29T10:01:01Z</time>
      </trkpt>
      <trkpt lat="44.27033" lon="1.98598">
        <ele>249.987</ele>
        <time>2019-08-29T10:01:04Z</time>
      </trkpt>
      <trkpt lat="44.27044" lon="1.98603">
        <ele>250.889</ele>
        <time>2019-08-29T10:01:08Z</time>
      </trkpt>
      <trkpt lat="44.27056" lon="1.98609">
        <ele>252.375</ele>
        <time>2019-08-29T10:01:12Z</time>
      </trkpt>
      <trkpt lat="44.27066" lon="1.98609">
        <ele>254.354</ele>
        <time>2019-08-29T10:01:16Z</time>
      </trkpt>
      <trkpt lat="44.27076" lon="1.98607">
        <ele>255.169</ele>
        <time>2019-08-29T10:01:20Z</time>
      </trkpt>
      <trkpt lat="44.27103" lon="1.98606">
        <ele>256.937</ele>
        <time>2019-08-29T10:01:28Z</time>
      </trkpt>
      <trkpt lat="44.27113" lon="1.98606">
        <ele>259.601</ele>
        <time>2019-08-29T10:01:32Z</time>
      </trkpt>
      <trkpt lat="44.27123" lon="1.98602">
        <ele>263.064</ele>
        <time>2019-08-29T10:01:37Z</time>
      </trkpt>
      <trkpt lat="44.27132" lon="1.98595">
        <ele>266.882</ele>
        <time>2019-08-29T10:01:42Z</time>
      </trkpt>
      <trkpt lat="44.2718" lon="1.98591">
        <ele>279.815</ele>
        <time>2019-08-29T10:02:07Z</time>
      </trkpt>
      <trkpt lat="44.2717" lon="1.98607">
        <ele>283.222</ele>
        <time>2019-08-29T10:02:14Z</time>
      </trkpt>
      <trkpt lat="44.27151" lon="1.98625">
        <ele>283.381</ele>
        <time>2019-08-29T10:02:18Z</time>
      </trkpt>
      <trkpt lat="44.27132" lon="1.98639">
        <ele>282.804</ele>
        <time>2019-08-29T10:02:21Z</time>
      </trkpt>
      <trkpt lat="44.27113" lon="1.98653">
        <ele>282.353</ele>
        <time>2019-08-29T10:02:24Z</time>
      </trkpt>
      <trkpt lat="44.27092" lon="1.9867">
        <ele>280.715</ele>
        <time>2019-08-29T10:02:28Z</time>
      </trkpt>
      <trkpt lat="44.27079" lon="1.9868">
        <ele>279.692</ele>
        <time>2019-08-29T10:02:31Z</time>
      </trkpt>
      <trkpt lat="44.27069" lon="1.9869">
        <ele>279.792</ele>
        <time>2019-08-29T10:02:35Z</time>
      </trkpt>
      <trkpt lat="44.27068" lon="1.98705">
        <ele>280.349</ele>
        <time>2019-08-29T10:02:39Z</time>
      </trkpt>
      <trkpt lat="44.27069" lon="1.98721">
        <ele>280.787</ele>
        <time>2019-08-29T10:02:44Z</time>
      </trkpt>
      <trkpt lat="44.27079" lon="1.98766">
        <ele>284.002</ele>
        <time>2019-08-29T10:03:01Z</time>
      </trkpt>
      <trkpt lat="44.27087" lon="1.98771">
        <ele>285.964</ele>
        <time>2019-08-29T10:03:26Z</time>
      </trkpt>
      <trkpt lat="44.27095" lon="1.98763">
        <ele>286.826</ele>
        <time>2019-08-29T10:03:31Z</time>
      </trkpt>
      <trkpt lat="44.27102" lon="1.98755">
        <ele>287.097</ele>
        <time>2019-08-29T10:03:36Z</time>
      </trkpt>
      <trkpt lat="44.27112" lon="1.98745">
        <ele>286.987</ele>
        <time>2019-08-29T10:03:40Z</time>
      </trkpt>
      <trkpt lat="44.27121" lon="1.98738">
        <ele>287.59</ele>
        <time>2019-08-29T10:03:43Z</time>
      </trkpt>
      <trkpt lat="44.27131" lon="1.98729">
        <ele>288.776</ele>
        <time>2019-08-29T10:03:47Z</time>
      </trkpt>
      <trkpt lat="44.2714" lon="1.9872">
        <ele>290.351</ele>
        <time>2019-08-29T10:03:51Z</time>
      </trkpt>
      <trkpt lat="44.27149" lon="1.98712">
        <ele>290.917</ele>
        <time>2019-08-29T10:03:55Z</time>
      </trkpt>
      <trkpt lat="44.27157" lon="1.98706">
        <ele>291.97</ele>
        <time>2019-08-29T10:03:59Z</time>
      </trkpt>
      <trkpt lat="44.27166" lon="1.98703">
        <ele>293.462</ele>
        <time>2019-08-29T10:04:03Z</time>
      </trkpt>
      <trkpt lat="44.27175" lon="1.98697">
        <ele>294.967</ele>
        <time>2019-08-29T10:04:07Z</time>
      </trkpt>
      <trkpt lat="44.27183" lon="1.98692">
        <ele>297.162</ele>
        <time>2019-08-29T10:04:11Z</time>
      </trkpt>
      <trkpt lat="44.27218" lon="1.98669">
        <ele>305.59</ele>
        <time>2019-08-29T10:04:31Z</time>
      </trkpt>
      <trkpt lat="44.27228" lon="1.98663">
        <ele>306.371</ele>
        <time>2019-08-29T10:05:02Z</time>
      </trkpt>
      <trkpt lat="44.27236" lon="1.98657">
        <ele>306.822</ele>
        <time>2019-08-29T10:05:06Z</time>
      </trkpt>
      <trkpt lat="44.27246" lon="1.9865">
        <ele>309.195</ele>
        <time>2019-08-29T10:05:11Z</time>
      </trkpt>
      <trkpt lat="44.27255" lon="1.98643">
        <ele>311.209</ele>
        <time>2019-08-29T10:05:15Z</time>
      </trkpt>
      <trkpt lat="44.27263" lon="1.98637">
        <ele>314.046</ele>
        <time>2019-08-29T10:05:20Z</time>
      </trkpt>
      <trkpt lat="44.2727" lon="1.9863">
        <ele>314.17</ele>
        <time>2019-08-29T10:05:24Z</time>
      </trkpt>
      <trkpt lat="44.27279" lon="1.98622">
        <ele>315.923</ele>
        <time>2019-08-29T10:05:28Z</time>
      </trkpt>
      <trkpt lat="44.27287" lon="1.98612">
        <ele>317.292</ele>
        <time>2019-08-29T10:05:32Z</time>
      </trkpt>
      <trkpt lat="44.27294" lon="1.98603">
        <ele>318.786</ele>
        <time>2019-08-29T10:05:35Z</time>
      </trkpt>
      <trkpt lat="44.27304" lon="1.98596">
        <ele>320.012</ele>
        <time>2019-08-29T10:05:40Z</time>
      </trkpt>
      <trkpt lat="44.27311" lon="1.98588">
        <ele>321.09</ele>
        <time>2019-08-29T10:05:44Z</time>
      </trkpt>
      <trkpt lat="44.27326" lon="1.98574">
        <ele>324.409</ele>
        <time>2019-08-29T10:05:51Z</time>
      </trkpt>
      <trkpt lat="44.27335" lon="1.9857">
        <ele>326.062</ele>
        <time>2019-08-29T10:05:55Z</time>
      </trkpt>
      <trkpt lat="44.27344" lon="1.98569">
        <ele>327.881</ele>
        <time>2019-08-29T10:05:59Z</time>
      </trkpt>
      <trkpt lat="44.27354" lon="1.98567">
        <ele>330.122</ele>
        <time>2019-08-29T10:06:03Z</time>
      </trkpt>
      <trkpt lat="44.27364" lon="1.98569">
        <ele>332.599</ele>
        <time>2019-08-29T10:06:07Z</time>
      </trkpt>
      <trkpt lat="44.27373" lon="1.98575">
        <ele>336.321</ele>
        <time>2019-08-29T10:06:12Z</time>
      </trkpt>
      <trkpt lat="44.27381" lon="1.98582">
        <ele>340.142</ele>
        <time>2019-08-29T10:06:18Z</time>
      </trkpt>
      <trkpt lat="44.27391" lon="1.98588">
        <ele>342.739</ele>
        <time>2019-08-29T10:06:24Z</time>
      </trkpt>
      <trkpt lat="44.27399" lon="1.98596">
        <ele>345.111</ele>
        <time>2019-08-29T10:06:29Z</time>
      </trkpt>
      <trkpt lat="44.27405" lon="1.98606">
        <ele>346.093</ele>
        <time>2019-08-29T10:06:34Z</time>
      </trkpt>
      <trkpt lat="44.27408" lon="1.98619">
        <ele>345.687</ele>
        <time>2019-08-29T10:06:40Z</time>
      </trkpt>
      <trkpt lat="44.2741" lon="1.98633">
        <ele>347.421</ele>
        <time>2019-08-29T10:06:46Z</time>
      </trkpt>
      <trkpt lat="44.27415" lon="1.98646">
        <ele>348.898</ele>
        <time>2019-08-29T10:06:50Z</time>
      </trkpt>
      <trkpt lat="44.2742" lon="1.98659">
        <ele>350.384</ele>
        <time>2019-08-29T10:06:53Z</time>
      </trkpt>
      <trkpt lat="44.27424" lon="1.98671">
        <ele>353.098</ele>
        <time>2019-08-29T10:06:57Z</time>
      </trkpt>
      <trkpt lat="44.27426" lon="1.98684">
        <ele>357.82</ele>
        <time>2019-08-29T10:07:04Z</time>
      </trkpt>
      <trkpt lat="44.27428" lon="1.98697">
        <ele>360.017</ele>
        <time>2019-08-29T10:07:11Z</time>
      </trkpt>
      <trkpt lat="44.27432" lon="1.9871">
        <ele>361.354</ele>
        <time>2019-08-29T10:07:18Z</time>
      </trkpt>
      <trkpt lat="44.27434" lon="1.98724">
        <ele>361.491</ele>
        <time>2019-08-29T10:07:23Z</time>
      </trkpt>
      <trkpt lat="44.27436" lon="1.98739">
        <ele>362.407</ele>
        <time>2019-08-29T10:07:28Z</time>
      </trkpt>
      <trkpt lat="44.27439" lon="1.98753">
        <ele>362.829</ele>
        <time>2019-08-29T10:07:33Z</time>
      </trkpt>
      <trkpt lat="44.27441" lon="1.98768">
        <ele>363.022</ele>
        <time>2019-08-29T10:07:38Z</time>
      </trkpt>
      <trkpt lat="44.27443" lon="1.98782">
        <ele>361.639</ele>
        <time>2019-08-29T10:07:44Z</time>
      </trkpt>
      <trkpt lat="44.27452" lon="1.98791">
        <ele>362.031</ele>
        <time>2019-08-29T10:08:29Z</time>
      </trkpt>
      <trkpt lat="44.27462" lon="1.98794">
        <ele>362.354</ele>
        <time>2019-08-29T10:08:33Z</time>
      </trkpt>
      <trkpt lat="44.27472" lon="1.98794">
        <ele>361.981</ele>
        <time>2019-08-29T10:08:39Z</time>
      </trkpt>
      <trkpt lat="44.27485" lon="1.98794">
        <ele>362.165</ele>
        <time>2019-08-29T10:08:44Z</time>
      </trkpt>
      <trkpt lat="44.27495" lon="1.98792">
        <ele>362.583</ele>
        <time>2019-08-29T10:08:48Z</time>
      </trkpt>
      <trkpt lat="44.27505" lon="1.9879">
        <ele>362.882</ele>
        <time>2019-08-29T10:08:54Z</time>
      </trkpt>
      <trkpt lat="44.27515" lon="1.98789">
        <ele>362.583</ele>
        <time>2019-08-29T10:08:58Z</time>
      </trkpt>
      <trkpt lat="44.27526" lon="1.98793">
        <ele>362.163</ele>
        <time>2019-08-29T10:09:03Z</time>
      </trkpt>
      <trkpt lat="44.27536" lon="1.98796">
        <ele>362.383</ele>
        <time>2019-08-29T10:09:07Z</time>
      </trkpt>
      <trkpt lat="44.27546" lon="1.98795">
        <ele>362.813</ele>
        <time>2019-08-29T10:09:12Z</time>
      </trkpt>
      <trkpt lat="44.27557" lon="1.98791">
        <ele>362.045</ele>
        <time>2019-08-29T10:09:16Z</time>
      </trkpt>
      <trkpt lat="44.27569" lon="1.98788">
        <ele>362.769</ele>
        <time>2019-08-29T10:09:20Z</time>
      </trkpt>
      <trkpt lat="44.27578" lon="1.98788">
        <ele>362.775</ele>
        <time>2019-08-29T10:09:23Z</time>
      </trkpt>
      <trkpt lat="44.27594" lon="1.98787">
        <ele>362.675</ele>
        <time>2019-08-29T10:09:27Z</time>
      </trkpt>
      <trkpt lat="44.27607" lon="1.98781">
        <ele>362.61</ele>
        <time>2019-08-29T10:09:31Z</time>
      </trkpt>
      <trkpt lat="44.27627" lon="1.98775">
        <ele>362.284</ele>
        <time>2019-08-29T10:09:35Z</time>
      </trkpt>
      <trkpt lat="44.27647" lon="1.98767">
        <ele>361.948</ele>
        <time>2019-08-29T10:09:39Z</time>
      </trkpt>
      <trkpt lat="44.27658" lon="1.98761">
        <ele>361.853</ele>
        <time>2019-08-29T10:09:42Z</time>
      </trkpt>
      <trkpt lat="44.2767" lon="1.98755">
        <ele>361.582</ele>
        <time>2019-08-29T10:09:46Z</time>
      </trkpt>
      <trkpt lat="44.27679" lon="1.9875">
        <ele>361.903</ele>
        <time>2019-08-29T10:09:49Z</time>
      </trkpt>
      <trkpt lat="44.27748" lon="1.98785">
        <ele>364.27</ele>
        <time>2019-08-29T10:10:15Z</time>
      </trkpt>
      <trkpt lat="44.27748" lon="1.98802">
        <ele>363.938</ele>
        <time>2019-08-29T10:10:18Z</time>
      </trkpt>
      <trkpt lat="44.27747" lon="1.98818">
        <ele>363.49</ele>
        <time>2019-08-29T10:10:21Z</time>
      </trkpt>
      <trkpt lat="44.27747" lon="1.98838">
        <ele>362.668</ele>
        <time>2019-08-29T10:10:25Z</time>
      </trkpt>
      <trkpt lat="44.27744" lon="1.98851">
        <ele>361.126</ele>
        <time>2019-08-29T10:10:29Z</time>
      </trkpt>
      <trkpt lat="44.27741" lon="1.9887">
        <ele>359.991</ele>
        <time>2019-08-29T10:10:33Z</time>
      </trkpt>
      <trkpt lat="44.2774" lon="1.98882">
        <ele>358.902</ele>
        <time>2019-08-29T10:10:36Z</time>
      </trkpt>
      <trkpt lat="44.27738" lon="1.98897">
        <ele>356.537</ele>
        <time>2019-08-29T10:10:40Z</time>
      </trkpt>
      <trkpt lat="44.27739" lon="1.98911">
        <ele>353.006</ele>
        <time>2019-08-29T10:10:43Z</time>
      </trkpt>
      <trkpt lat="44.27744" lon="1.9893">
        <ele>347.129</ele>
        <time>2019-08-29T10:10:47Z</time>
      </trkpt>
      <trkpt lat="44.27742" lon="1.98942">
        <ele>342.807</ele>
        <time>2019-08-29T10:10:52Z</time>
      </trkpt>
      <trkpt lat="44.27735" lon="1.98951">
        <ele>339.039</ele>
        <time>2019-08-29T10:10:58Z</time>
      </trkpt>
      <trkpt lat="44.27727" lon="1.98958">
        <ele>334.298</ele>
        <time>2019-08-29T10:11:06Z</time>
      </trkpt>
      <trkpt lat="44.27721" lon="1.98967">
        <ele>332.438</ele>
        <time>2019-08-29T10:11:10Z</time>
      </trkpt>
      <trkpt lat="44.27716" lon="1.98978">
        <ele>331</ele>
        <time>2019-08-29T10:11:14Z</time>
      </trkpt>
      <trkpt lat="44.27709" lon="1.98995">
        <ele>330.21</ele>
        <time>2019-08-29T10:11:17Z</time>
      </trkpt>
      <trkpt lat="44.27705" lon="1.99009">
        <ele>327.267</ele>
        <time>2019-08-29T10:11:22Z</time>
      </trkpt>
      <trkpt lat="44.27703" lon="1.99023">
        <ele>326.662</ele>
        <time>2019-08-29T10:11:27Z</time>
      </trkpt>
      <trkpt lat="44.27701" lon="1.99036">
        <ele>325.336</ele>
        <time>2019-08-29T10:11:32Z</time>
      </trkpt>
      <trkpt lat="44.27701" lon="1.99053">
        <ele>323.609</ele>
        <time>2019-08-29T10:11:36Z</time>
      </trkpt>
      <trkpt lat="44.27701" lon="1.99068">
        <ele>322.529</ele>
        <time>2019-08-29T10:11:39Z</time>
      </trkpt>
      <trkpt lat="44.27701" lon="1.99089">
        <ele>321.252</ele>
        <time>2019-08-29T10:11:43Z</time>
      </trkpt>
      <trkpt lat="44.27703" lon="1.99115">
        <ele>319.483</ele>
        <time>2019-08-29T10:11:47Z</time>
      </trkpt>
      <trkpt lat="44.27707" lon="1.99133">
        <ele>317.511</ele>
        <time>2019-08-29T10:11:51Z</time>
      </trkpt>
      <trkpt lat="44.27709" lon="1.99145">
        <ele>315.802</ele>
        <time>2019-08-29T10:12:17Z</time>
      </trkpt>
      <trkpt lat="44.27711" lon="1.99159">
        <ele>315.395</ele>
        <time>2019-08-29T10:12:21Z</time>
      </trkpt>
      <trkpt lat="44.27715" lon="1.99172">
        <ele>314.479</ele>
        <time>2019-08-29T10:12:27Z</time>
      </trkpt>
      <trkpt lat="44.27722" lon="1.99183">
        <ele>313.204</ele>
        <time>2019-08-29T10:12:31Z</time>
      </trkpt>
      <trkpt lat="44.27728" lon="1.99196">
        <ele>311.384</ele>
        <time>2019-08-29T10:12:36Z</time>
      </trkpt>
      <trkpt lat="44.27738" lon="1.99203">
        <ele>310.407</ele>
        <time>2019-08-29T10:12:40Z</time>
      </trkpt>
      <trkpt lat="44.27749" lon="1.99203">
        <ele>309.854</ele>
        <time>2019-08-29T10:12:44Z</time>
      </trkpt>
      <trkpt lat="44.27759" lon="1.99209">
        <ele>309.738</ele>
        <time>2019-08-29T10:12:49Z</time>
      </trkpt>
      <trkpt lat="44.27766" lon="1.99219">
        <ele>309.097</ele>
        <time>2019-08-29T10:12:52Z</time>
      </trkpt>
      <trkpt lat="44.27771" lon="1.99239">
        <ele>307.652</ele>
        <time>2019-08-29T10:12:56Z</time>
      </trkpt>
      <trkpt lat="44.27782" lon="1.99262">
        <ele>306.605</ele>
        <time>2019-08-29T10:13:00Z</time>
      </trkpt>
      <trkpt lat="44.27789" lon="1.99281">
        <ele>306.336</ele>
        <time>2019-08-29T10:13:03Z</time>
      </trkpt>
      <trkpt lat="44.27796" lon="1.99297">
        <ele>305.562</ele>
        <time>2019-08-29T10:13:06Z</time>
      </trkpt>
      <trkpt lat="44.27809" lon="1.99302">
        <ele>305.663</ele>
        <time>2019-08-29T10:13:10Z</time>
      </trkpt>
      <trkpt lat="44.2782" lon="1.99309">
        <ele>304.59</ele>
        <time>2019-08-29T10:13:13Z</time>
      </trkpt>
      <trkpt lat="44.27837" lon="1.99324">
        <ele>303.924</ele>
        <time>2019-08-29T10:13:17Z</time>
      </trkpt>
      <trkpt lat="44.27855" lon="1.99334">
        <ele>301.964</ele>
        <time>2019-08-29T10:13:21Z</time>
      </trkpt>
      <trkpt lat="44.2787" lon="1.99329">
        <ele>301.113</ele>
        <time>2019-08-29T10:13:24Z</time>
      </trkpt>
      <trkpt lat="44.27891" lon="1.99323">
        <ele>298.911</ele>
        <time>2019-08-29T10:13:28Z</time>
      </trkpt>
      <trkpt lat="44.27908" lon="1.99335">
        <ele>297.001</ele>
        <time>2019-08-29T10:13:31Z</time>
      </trkpt>
      <trkpt lat="44.27923" lon="1.9935">
        <ele>296.062</ele>
        <time>2019-08-29T10:13:34Z</time>
      </trkpt>
      <trkpt lat="44.27931" lon="1.99358">
        <ele>295.477</ele>
        <time>2019-08-29T10:13:38Z</time>
      </trkpt>
      <trkpt lat="44.27934" lon="1.9937">
        <ele>294.907</ele>
        <time>2019-08-29T10:14:00Z</time>
      </trkpt>
      <trkpt lat="44.27938" lon="1.99387">
        <ele>294.434</ele>
        <time>2019-08-29T10:14:04Z</time>
      </trkpt>
      <trkpt lat="44.27941" lon="1.99407">
        <ele>294.752</ele>
        <time>2019-08-29T10:14:08Z</time>
      </trkpt>
      <trkpt lat="44.27944" lon="1.99422">
        <ele>295.387</ele>
        <time>2019-08-29T10:14:11Z</time>
      </trkpt>
      <trkpt lat="44.27948" lon="1.99441">
        <ele>296.533</ele>
        <time>2019-08-29T10:14:15Z</time>
      </trkpt>
      <trkpt lat="44.27952" lon="1.99455">
        <ele>296.812</ele>
        <time>2019-08-29T10:14:18Z</time>
      </trkpt>
      <trkpt lat="44.27955" lon="1.99474">
        <ele>297.511</ele>
        <time>2019-08-29T10:14:22Z</time>
      </trkpt>
      <trkpt lat="44.27959" lon="1.9949">
        <ele>298.319</ele>
        <time>2019-08-29T10:14:26Z</time>
      </trkpt>
      <trkpt lat="44.27965" lon="1.99506">
        <ele>299.406</ele>
        <time>2019-08-29T10:14:30Z</time>
      </trkpt>
      <trkpt lat="44.27971" lon="1.99518">
        <ele>299.558</ele>
        <time>2019-08-29T10:14:34Z</time>
      </trkpt>
      <trkpt lat="44.27977" lon="1.99528">
        <ele>300.5</ele>
        <time>2019-08-29T10:14:39Z</time>
      </trkpt>
      <trkpt lat="44.27971" lon="1.99516">
        <ele>302.211</ele>
        <time>2019-08-29T10:14:58Z</time>
      </trkpt>
      <trkpt lat="44.27964" lon="1.99501">
        <ele>301.692</ele>
        <time>2019-08-29T10:15:01Z</time>
      </trkpt>
      <trkpt lat="44.27955" lon="1.99482">
        <ele>300.682</ele>
        <time>2019-08-29T10:15:05Z</time>
      </trkpt>
      <trkpt lat="44.27954" lon="1.99469">
        <ele>300.071</ele>
        <time>2019-08-29T10:15:10Z</time>
      </trkpt>
      <trkpt lat="44.27951" lon="1.9945">
        <ele>300.378</ele>
        <time>2019-08-29T10:15:14Z</time>
      </trkpt>
      <trkpt lat="44.27946" lon="1.99435">
        <ele>300.142</ele>
        <time>2019-08-29T10:15:18Z</time>
      </trkpt>
      <trkpt lat="44.27942" lon="1.99418">
        <ele>299.559</ele>
        <time>2019-08-29T10:15:22Z</time>
      </trkpt>
      <trkpt lat="44.27937" lon="1.99406">
        <ele>299.139</ele>
        <time>2019-08-29T10:15:25Z</time>
      </trkpt>
      <trkpt lat="44.27936" lon="1.99389">
        <ele>298.436</ele>
        <time>2019-08-29T10:15:29Z</time>
      </trkpt>
      <trkpt lat="44.27934" lon="1.99374">
        <ele>297.713</ele>
        <time>2019-08-29T10:15:33Z</time>
      </trkpt>
      <trkpt lat="44.27933" lon="1.99359">
        <ele>296.476</ele>
        <time>2019-08-29T10:15:37Z</time>
      </trkpt>
      <trkpt lat="44.27942" lon="1.99354">
        <ele>295.128</ele>
        <time>2019-08-29T10:15:42Z</time>
      </trkpt>
      <trkpt lat="44.27952" lon="1.99353">
        <ele>294.746</ele>
        <time>2019-08-29T10:15:46Z</time>
      </trkpt>
      <trkpt lat="44.27963" lon="1.99359">
        <ele>294.87</ele>
        <time>2019-08-29T10:15:50Z</time>
      </trkpt>
      <trkpt lat="44.27971" lon="1.99365">
        <ele>295.219</ele>
        <time>2019-08-29T10:15:53Z</time>
      </trkpt>
      <trkpt lat="44.27981" lon="1.99372">
        <ele>296.334</ele>
        <time>2019-08-29T10:15:57Z</time>
      </trkpt>
      <trkpt lat="44.27992" lon="1.99379">
        <ele>297.915</ele>
        <time>2019-08-29T10:16:01Z</time>
      </trkpt>
      <trkpt lat="44.28002" lon="1.99385">
        <ele>300.721</ele>
        <time>2019-08-29T10:16:05Z</time>
      </trkpt>
      <trkpt lat="44.2801" lon="1.9939">
        <ele>303.85</ele>
        <time>2019-08-29T10:16:09Z</time>
      </trkpt>
      <trkpt lat="44.28044" lon="1.99403">
        <ele>315.09</ele>
        <time>2019-08-29T10:16:25Z</time>
      </trkpt>
      <trkpt lat="44.28049" lon="1.99414">
        <ele>317.034</ele>
        <time>2019-08-29T10:17:38Z</time>
      </trkpt>
      <trkpt lat="44.28059" lon="1.99415">
        <ele>317</ele>
        <time>2019-08-29T10:18:34Z</time>
      </trkpt>
      <trkpt lat="44.28068" lon="1.99418">
        <ele>318.011</ele>
        <time>2019-08-29T10:18:40Z</time>
      </trkpt>
      <trkpt lat="44.28075" lon="1.99429">
        <ele>317.631</ele>
        <time>2019-08-29T10:18:46Z</time>
      </trkpt>
      <trkpt lat="44.28081" lon="1.99441">
        <ele>317.553</ele>
        <time>2019-08-29T10:19:16Z</time>
      </trkpt>
      <trkpt lat="44.28091" lon="1.99447">
        <ele>315.222</ele>
        <time>2019-08-29T10:19:21Z</time>
      </trkpt>
      <trkpt lat="44.28101" lon="1.99451">
        <ele>313.529</ele>
        <time>2019-08-29T10:19:25Z</time>
      </trkpt>
      <trkpt lat="44.28112" lon="1.99455">
        <ele>310.562</ele>
        <time>2019-08-29T10:19:31Z</time>
      </trkpt>
      <trkpt lat="44.28121" lon="1.99457">
        <ele>305.799</ele>
        <time>2019-08-29T10:19:37Z</time>
      </trkpt>
      <trkpt lat="44.28112" lon="1.99455">
        <ele>298.207</ele>
        <time>2019-08-29T10:19:52Z</time>
      </trkpt>
      <trkpt lat="44.28103" lon="1.99449">
        <ele>297.816</ele>
        <time>2019-08-29T10:20:00Z</time>
      </trkpt>
      <trkpt lat="44.28094" lon="1.99442">
        <ele>300.822</ele>
        <time>2019-08-29T10:20:08Z</time>
      </trkpt>
      <trkpt lat="44.28086" lon="1.99435">
        <ele>304.579</ele>
        <time>2019-08-29T10:21:02Z</time>
      </trkpt>
      <trkpt lat="44.28078" lon="1.99427">
        <ele>307.533</ele>
        <time>2019-08-29T10:21:09Z</time>
      </trkpt>
      <trkpt lat="44.28068" lon="1.99421">
        <ele>307.614</ele>
        <time>2019-08-29T10:21:14Z</time>
      </trkpt>
      <trkpt lat="44.28059" lon="1.99416">
        <ele>309.074</ele>
        <time>2019-08-29T10:21:19Z</time>
      </trkpt>
      <trkpt lat="44.28054" lon="1.99429">
        <ele>310.412</ele>
        <time>2019-08-29T10:21:31Z</time>
      </trkpt>
      <trkpt lat="44.28054" lon="1.99443">
        <ele>310.776</ele>
        <time>2019-08-29T10:21:35Z</time>
      </trkpt>
      <trkpt lat="44.28051" lon="1.99457">
        <ele>310.511</ele>
        <time>2019-08-29T10:21:42Z</time>
      </trkpt>
      <trkpt lat="44.28048" lon="1.9947">
        <ele>310.214</ele>
        <time>2019-08-29T10:21:46Z</time>
      </trkpt>
      <trkpt lat="44.28044" lon="1.99486">
        <ele>310.257</ele>
        <time>2019-08-29T10:21:50Z</time>
      </trkpt>
      <trkpt lat="44.28042" lon="1.99501">
        <ele>308.21</ele>
        <time>2019-08-29T10:21:56Z</time>
      </trkpt>
      <trkpt lat="44.28047" lon="1.99489">
        <ele>307.076</ele>
        <time>2019-08-29T10:22:03Z</time>
      </trkpt>
      <trkpt lat="44.28051" lon="1.99476">
        <ele>307.461</ele>
        <time>2019-08-29T10:22:07Z</time>
      </trkpt>
      <trkpt lat="44.28054" lon="1.99463">
        <ele>308.493</ele>
        <time>2019-08-29T10:22:11Z</time>
      </trkpt>
      <trkpt lat="44.28056" lon="1.99448">
        <ele>309.585</ele>
        <time>2019-08-29T10:22:16Z</time>
      </trkpt>
      <trkpt lat="44.28056" lon="1.99435">
        <ele>311.015</ele>
        <time>2019-08-29T10:22:20Z</time>
      </trkpt>
      <trkpt lat="44.28055" lon="1.99422">
        <ele>312.313</ele>
        <time>2019-08-29T10:22:24Z</time>
      </trkpt>
      <trkpt lat="44.28051" lon="1.99409">
        <ele>312.623</ele>
        <time>2019-08-29T10:23:38Z</time>
      </trkpt>
      <trkpt lat="44.28042" lon="1.99407">
        <ele>313.742</ele>
        <time>2019-08-29T10:23:43Z</time>
      </trkpt>
      <trkpt lat="44.28033" lon="1.99402">
        <ele>313.687</ele>
        <time>2019-08-29T10:23:47Z</time>
      </trkpt>
      <trkpt lat="44.28023" lon="1.99396">
        <ele>313.802</ele>
        <time>2019-08-29T10:23:53Z</time>
      </trkpt>
      <trkpt lat="44.28013" lon="1.9939">
        <ele>312.21</ele>
        <time>2019-08-29T10:23:59Z</time>
      </trkpt>
      <trkpt lat="44.28003" lon="1.99383">
        <ele>311.207</ele>
        <time>2019-08-29T10:24:02Z</time>
      </trkpt>
      <trkpt lat="44.27993" lon="1.99375">
        <ele>309.343</ele>
        <time>2019-08-29T10:24:06Z</time>
      </trkpt>
      <trkpt lat="44.27983" lon="1.9937">
        <ele>308.166</ele>
        <time>2019-08-29T10:24:09Z</time>
      </trkpt>
      <trkpt lat="44.27974" lon="1.99361">
        <ele>306.212</ele>
        <time>2019-08-29T10:24:13Z</time>
      </trkpt>
      <trkpt lat="44.27964" lon="1.99353">
        <ele>305.166</ele>
        <time>2019-08-29T10:24:31Z</time>
      </trkpt>
      <trkpt lat="44.27948" lon="1.99353">
        <ele>305.009</ele>
        <time>2019-08-29T10:24:35Z</time>
      </trkpt>
      <trkpt lat="44.2792" lon="1.99337">
        <ele>304.436</ele>
        <time>2019-08-29T10:24:39Z</time>
      </trkpt>
      <trkpt lat="44.27903" lon="1.99322">
        <ele>302.581</ele>
        <time>2019-08-29T10:24:43Z</time>
      </trkpt>
      <trkpt lat="44.27893" lon="1.99317">
        <ele>300.772</ele>
        <time>2019-08-29T10:24:46Z</time>
      </trkpt>
      <trkpt lat="44.27877" lon="1.99324">
        <ele>299.208</ele>
        <time>2019-08-29T10:24:50Z</time>
      </trkpt>
      <trkpt lat="44.27865" lon="1.9933">
        <ele>298.48</ele>
        <time>2019-08-29T10:24:53Z</time>
      </trkpt>
      <trkpt lat="44.27848" lon="1.99327">
        <ele>297.624</ele>
        <time>2019-08-29T10:24:57Z</time>
      </trkpt>
      <trkpt lat="44.27835" lon="1.99318">
        <ele>297.496</ele>
        <time>2019-08-29T10:25:00Z</time>
      </trkpt>
      <trkpt lat="44.27822" lon="1.99311">
        <ele>297.496</ele>
        <time>2019-08-29T10:25:03Z</time>
      </trkpt>
      <trkpt lat="44.27809" lon="1.99303">
        <ele>298.529</ele>
        <time>2019-08-29T10:25:07Z</time>
      </trkpt>
      <trkpt lat="44.27799" lon="1.99295">
        <ele>299.466</ele>
        <time>2019-08-29T10:25:11Z</time>
      </trkpt>
      <trkpt lat="44.27795" lon="1.99283">
        <ele>299.554</ele>
        <time>2019-08-29T10:25:14Z</time>
      </trkpt>
      <trkpt lat="44.27792" lon="1.99271">
        <ele>299.366</ele>
        <time>2019-08-29T10:25:17Z</time>
      </trkpt>
      <trkpt lat="44.27787" lon="1.99259">
        <ele>299.502</ele>
        <time>2019-08-29T10:25:20Z</time>
      </trkpt>
      <trkpt lat="44.2778" lon="1.9924">
        <ele>301.025</ele>
        <time>2019-08-29T10:25:24Z</time>
      </trkpt>
      <trkpt lat="44.27774" lon="1.99219">
        <ele>302.102</ele>
        <time>2019-08-29T10:25:28Z</time>
      </trkpt>
      <trkpt lat="44.27771" lon="1.99206">
        <ele>302.883</ele>
        <time>2019-08-29T10:25:31Z</time>
      </trkpt>
      <trkpt lat="44.27781" lon="1.99197">
        <ele>304.372</ele>
        <time>2019-08-29T10:25:35Z</time>
      </trkpt>
      <trkpt lat="44.27798" lon="1.99186">
        <ele>307.005</ele>
        <time>2019-08-29T10:25:42Z</time>
      </trkpt>
      <trkpt lat="44.2782" lon="1.99173">
        <ele>309.089</ele>
        <time>2019-08-29T10:25:46Z</time>
      </trkpt>
      <trkpt lat="44.27834" lon="1.99162">
        <ele>311.804</ele>
        <time>2019-08-29T10:25:50Z</time>
      </trkpt>
      <trkpt lat="44.27846" lon="1.99154">
        <ele>313.727</ele>
        <time>2019-08-29T10:25:53Z</time>
      </trkpt>
      <trkpt lat="44.27855" lon="1.99149">
        <ele>315.277</ele>
        <time>2019-08-29T10:26:08Z</time>
      </trkpt>
      <trkpt lat="44.27863" lon="1.99141">
        <ele>315.108</ele>
        <time>2019-08-29T10:26:22Z</time>
      </trkpt>
      <trkpt lat="44.27872" lon="1.99134">
        <ele>315.027</ele>
        <time>2019-08-29T10:26:25Z</time>
      </trkpt>
      <trkpt lat="44.2788" lon="1.99125">
        <ele>315.347</ele>
        <time>2019-08-29T10:26:30Z</time>
      </trkpt>
      <trkpt lat="44.27889" lon="1.99116">
        <ele>316.668</ele>
        <time>2019-08-29T10:26:34Z</time>
      </trkpt>
      <trkpt lat="44.27903" lon="1.99109">
        <ele>316.835</ele>
        <time>2019-08-29T10:26:37Z</time>
      </trkpt>
      <trkpt lat="44.27923" lon="1.99097">
        <ele>316.898</ele>
        <time>2019-08-29T10:26:41Z</time>
      </trkpt>
      <trkpt lat="44.27943" lon="1.99084">
        <ele>316.98</ele>
        <time>2019-08-29T10:26:45Z</time>
      </trkpt>
      <trkpt lat="44.27959" lon="1.99072">
        <ele>317.611</ele>
        <time>2019-08-29T10:26:49Z</time>
      </trkpt>
      <trkpt lat="44.27977" lon="1.99062">
        <ele>319.14</ele>
        <time>2019-08-29T10:26:53Z</time>
      </trkpt>
      <trkpt lat="44.2799" lon="1.99055">
        <ele>319.842</ele>
        <time>2019-08-29T10:26:56Z</time>
      </trkpt>
      <trkpt lat="44.2801" lon="1.99044">
        <ele>320.533</ele>
        <time>2019-08-29T10:27:00Z</time>
      </trkpt>
      <trkpt lat="44.28024" lon="1.99039">
        <ele>321.284</ele>
        <time>2019-08-29T10:27:03Z</time>
      </trkpt>
      <trkpt lat="44.28038" lon="1.99035">
        <ele>322.443</ele>
        <time>2019-08-29T10:27:06Z</time>
      </trkpt>
      <trkpt lat="44.28055" lon="1.99034">
        <ele>324.257</ele>
        <time>2019-08-29T10:27:10Z</time>
      </trkpt>
      <trkpt lat="44.28077" lon="1.9903">
        <ele>326.365</ele>
        <time>2019-08-29T10:27:14Z</time>
      </trkpt>
      <trkpt lat="44.2809" lon="1.99021">
        <ele>326.628</ele>
        <time>2019-08-29T10:27:17Z</time>
      </trkpt>
      <trkpt lat="44.28106" lon="1.99012">
        <ele>327.77</ele>
        <time>2019-08-29T10:27:21Z</time>
      </trkpt>
      <trkpt lat="44.28117" lon="1.99007">
        <ele>329.148</ele>
        <time>2019-08-29T10:27:24Z</time>
      </trkpt>
      <trkpt lat="44.2813" lon="1.99004">
        <ele>331.014</ele>
        <time>2019-08-29T10:27:27Z</time>
      </trkpt>
      <trkpt lat="44.28146" lon="1.99">
        <ele>332.952</ele>
        <time>2019-08-29T10:27:31Z</time>
      </trkpt>
      <trkpt lat="44.28157" lon="1.98999">
        <ele>334.411</ele>
        <time>2019-08-29T10:27:34Z</time>
      </trkpt>
      <trkpt lat="44.2817" lon="1.98997">
        <ele>336.417</ele>
        <time>2019-08-29T10:27:38Z</time>
      </trkpt>
      <trkpt lat="44.28199" lon="1.98995">
        <ele>341.483</ele>
        <time>2019-08-29T10:27:47Z</time>
      </trkpt>
      <trkpt lat="44.28213" lon="1.98995">
        <ele>344.43</ele>
        <time>2019-08-29T10:27:51Z</time>
      </trkpt>
      <trkpt lat="44.28224" lon="1.98998">
        <ele>347.551</ele>
        <time>2019-08-29T10:27:55Z</time>
      </trkpt>
      <trkpt lat="44.28236" lon="1.99">
        <ele>349.505</ele>
        <time>2019-08-29T10:27:59Z</time>
      </trkpt>
      <trkpt lat="44.28247" lon="1.99001">
        <ele>350.76</ele>
        <time>2019-08-29T10:28:02Z</time>
      </trkpt>
      <trkpt lat="44.28262" lon="1.99001">
        <ele>351.396</ele>
        <time>2019-08-29T10:28:06Z</time>
      </trkpt>
      <trkpt lat="44.2829" lon="1.99001">
        <ele>354.181</ele>
        <time>2019-08-29T10:28:13Z</time>
      </trkpt>
      <trkpt lat="44.28313" lon="1.99">
        <ele>355.533</ele>
        <time>2019-08-29T10:28:17Z</time>
      </trkpt>
      <trkpt lat="44.28334" lon="1.98999">
        <ele>354.438</ele>
        <time>2019-08-29T10:28:21Z</time>
      </trkpt>
      <trkpt lat="44.28353" lon="1.98997">
        <ele>353.864</ele>
        <time>2019-08-29T10:28:24Z</time>
      </trkpt>
      <trkpt lat="44.28378" lon="1.98999">
        <ele>353.086</ele>
        <time>2019-08-29T10:28:28Z</time>
      </trkpt>
      <trkpt lat="44.28401" lon="1.99002">
        <ele>352.982</ele>
        <time>2019-08-29T10:28:32Z</time>
      </trkpt>
      <trkpt lat="44.28419" lon="1.99006">
        <ele>352.276</ele>
        <time>2019-08-29T10:28:36Z</time>
      </trkpt>
      <trkpt lat="44.28437" lon="1.99013">
        <ele>351.897</ele>
        <time>2019-08-29T10:28:40Z</time>
      </trkpt>
      <trkpt lat="44.28454" lon="1.99019">
        <ele>350.699</ele>
        <time>2019-08-29T10:28:44Z</time>
      </trkpt>
      <trkpt lat="44.28464" lon="1.99019">
        <ele>350.092</ele>
        <time>2019-08-29T10:28:48Z</time>
      </trkpt>
      <trkpt lat="44.28473" lon="1.99015">
        <ele>349.992</ele>
        <time>2019-08-29T10:28:54Z</time>
      </trkpt>
      <trkpt lat="44.28482" lon="1.99011">
        <ele>350.594</ele>
        <time>2019-08-29T10:28:59Z</time>
      </trkpt>
      <trkpt lat="44.28491" lon="1.99008">
        <ele>350.083</ele>
        <time>2019-08-29T10:29:06Z</time>
      </trkpt>
      <trkpt lat="44.28499" lon="1.99002">
        <ele>350.117</ele>
        <time>2019-08-29T10:29:13Z</time>
      </trkpt>
      <trkpt lat="44.28498" lon="1.99015">
        <ele>349.49</ele>
        <time>2019-08-29T10:29:19Z</time>
      </trkpt>
      <trkpt lat="44.28489" lon="1.99021">
        <ele>349.395</ele>
        <time>2019-08-29T10:29:23Z</time>
      </trkpt>
      <trkpt lat="44.28479" lon="1.99015">
        <ele>350.192</ele>
        <time>2019-08-29T10:29:28Z</time>
      </trkpt>
      <trkpt lat="44.28489" lon="1.9901">
        <ele>350.18</ele>
        <time>2019-08-29T10:29:34Z</time>
      </trkpt>
      <trkpt lat="44.28497" lon="1.99003">
        <ele>350.016</ele>
        <time>2019-08-29T10:29:42Z</time>
      </trkpt>
      <trkpt lat="44.28504" lon="1.98994">
        <ele>349.775</ele>
        <time>2019-08-29T10:29:49Z</time>
      </trkpt>
      <trkpt lat="44.28511" lon="1.98986">
        <ele>350.499</ele>
        <time>2019-08-29T10:29:56Z</time>
      </trkpt>
      <trkpt lat="44.28521" lon="1.98977">
        <ele>349.403</ele>
        <time>2019-08-29T10:30:01Z</time>
      </trkpt>
      <trkpt lat="44.28529" lon="1.98968">
        <ele>348.909</ele>
        <time>2019-08-29T10:30:05Z</time>
      </trkpt>
      <trkpt lat="44.28543" lon="1.98956">
        <ele>348.145</ele>
        <time>2019-08-29T10:30:09Z</time>
      </trkpt>
      <trkpt lat="44.28558" lon="1.9894">
        <ele>347.685</ele>
        <time>2019-08-29T10:30:13Z</time>
      </trkpt>
      <trkpt lat="44.28578" lon="1.98914">
        <ele>346.157</ele>
        <time>2019-08-29T10:30:17Z</time>
      </trkpt>
      <trkpt lat="44.28591" lon="1.98897">
        <ele>345.12</ele>
        <time>2019-08-29T10:30:20Z</time>
      </trkpt>
      <trkpt lat="44.28613" lon="1.98877">
        <ele>343.197</ele>
        <time>2019-08-29T10:30:24Z</time>
      </trkpt>
      <trkpt lat="44.28627" lon="1.98863">
        <ele>341.829</ele>
        <time>2019-08-29T10:30:27Z</time>
      </trkpt>
      <trkpt lat="44.28639" lon="1.98854">
        <ele>340.786</ele>
        <time>2019-08-29T10:31:15Z</time>
      </trkpt>
      <trkpt lat="44.28648" lon="1.98861">
        <ele>339.881</ele>
        <time>2019-08-29T10:31:18Z</time>
      </trkpt>
      <trkpt lat="44.28664" lon="1.98882">
        <ele>338.478</ele>
        <time>2019-08-29T10:31:22Z</time>
      </trkpt>
      <trkpt lat="44.28677" lon="1.98901">
        <ele>337.097</ele>
        <time>2019-08-29T10:31:25Z</time>
      </trkpt>
      <trkpt lat="44.28689" lon="1.9892">
        <ele>335.116</ele>
        <time>2019-08-29T10:31:29Z</time>
      </trkpt>
      <trkpt lat="44.28705" lon="1.98938">
        <ele>332.559</ele>
        <time>2019-08-29T10:31:33Z</time>
      </trkpt>
      <trkpt lat="44.28714" lon="1.98953">
        <ele>330.447</ele>
        <time>2019-08-29T10:31:36Z</time>
      </trkpt>
      <trkpt lat="44.28716" lon="1.98973">
        <ele>328.992</ele>
        <time>2019-08-29T10:31:39Z</time>
      </trkpt>
      <trkpt lat="44.28718" lon="1.98996">
        <ele>327.461</ele>
        <time>2019-08-29T10:31:42Z</time>
      </trkpt>
      <trkpt lat="44.28716" lon="1.99037">
        <ele>324.646</ele>
        <time>2019-08-29T10:31:46Z</time>
      </trkpt>
      <trkpt lat="44.28718" lon="1.99079">
        <ele>322.588</ele>
        <time>2019-08-29T10:31:49Z</time>
      </trkpt>
      <trkpt lat="44.28735" lon="1.99148">
        <ele>318.805</ele>
        <time>2019-08-29T10:31:53Z</time>
      </trkpt>
      <trkpt lat="44.28748" lon="1.99195">
        <ele>316.62</ele>
        <time>2019-08-29T10:31:56Z</time>
      </trkpt>
      <trkpt lat="44.28764" lon="1.99237">
        <ele>314.566</ele>
        <time>2019-08-29T10:31:59Z</time>
      </trkpt>
      <trkpt lat="44.28782" lon="1.99279">
        <ele>311.453</ele>
        <time>2019-08-29T10:32:02Z</time>
      </trkpt>
      <trkpt lat="44.28791" lon="1.99335">
        <ele>306.507</ele>
        <time>2019-08-29T10:32:06Z</time>
      </trkpt>
      <trkpt lat="44.28778" lon="1.99393">
        <ele>301.861</ele>
        <time>2019-08-29T10:32:10Z</time>
      </trkpt>
      <trkpt lat="44.28761" lon="1.99437">
        <ele>298.495</ele>
        <time>2019-08-29T10:32:13Z</time>
      </trkpt>
      <trkpt lat="44.28742" lon="1.99509">
        <ele>293.035</ele>
        <time>2019-08-29T10:32:17Z</time>
      </trkpt>
      <trkpt lat="44.28728" lon="1.99578">
        <ele>288.657</ele>
        <time>2019-08-29T10:32:21Z</time>
      </trkpt>
      <trkpt lat="44.28724" lon="1.99618">
        <ele>284.63</ele>
        <time>2019-08-29T10:32:24Z</time>
      </trkpt>
      <trkpt lat="44.28731" lon="1.99671">
        <ele>277.132</ele>
        <time>2019-08-29T10:32:28Z</time>
      </trkpt>
      <trkpt lat="44.28735" lon="1.99718">
        <ele>271.928</ele>
        <time>2019-08-29T10:32:32Z</time>
      </trkpt>
      <trkpt lat="44.28734" lon="1.99768">
        <ele>267.547</ele>
        <time>2019-08-29T10:32:36Z</time>
      </trkpt>
      <trkpt lat="44.28726" lon="1.99804">
        <ele>263.742</ele>
        <time>2019-08-29T10:32:39Z</time>
      </trkpt>
      <trkpt lat="44.287" lon="1.9984">
        <ele>258.65</ele>
        <time>2019-08-29T10:32:43Z</time>
      </trkpt>
      <trkpt lat="44.28678" lon="1.99852">
        <ele>255.338</ele>
        <time>2019-08-29T10:32:46Z</time>
      </trkpt>
      <trkpt lat="44.28665" lon="1.99861">
        <ele>250.101</ele>
        <time>2019-08-29T10:32:50Z</time>
      </trkpt>
      <trkpt lat="44.28667" lon="1.99885">
        <ele>246.081</ele>
        <time>2019-08-29T10:32:54Z</time>
      </trkpt>
      <trkpt lat="44.28672" lon="1.99913">
        <ele>242.991</ele>
        <time>2019-08-29T10:32:57Z</time>
      </trkpt>
      <trkpt lat="44.28675" lon="1.99957">
        <ele>239.883</ele>
        <time>2019-08-29T10:33:01Z</time>
      </trkpt>
      <trkpt lat="44.28688" lon="1.99977">
        <ele>236.927</ele>
        <time>2019-08-29T10:33:05Z</time>
      </trkpt>
      <trkpt lat="44.28686" lon="1.9999">
        <ele>235.835</ele>
        <time>2019-08-29T10:33:08Z</time>
      </trkpt>
    </trkseg>
  </trk>
</gpx>